<?xml version="1.0" encoding="UTF-8" standalone="no" ?><gpx xmlns="http://www.topografix.com/GPX/1/1" xmlns:gpxx="http://www.garmin.com/xmlschemas/GpxExtensions/v3" xmlns:wptx1="http://www.garmin.com/xmlschemas/WaypointExtension/v1" xmlns:gpxtpx="http://www.garmin.com/xmlschemas/TrackPointExtension/v1" creator="GuideVTT.com" version="1.1" xmlns:xsi="http://www.w3.org/2001/XMLSchema-instance" xsi:schemaLocation="http://www.topografix.com/GPX/1/1 http://www.topografix.com/GPX/1/1/gpx.xsd http://www.garmin.com/xmlschemas/GpxExtensions/v3 http://www8.garmin.com/xmlschemas/GpxExtensionsv3.xsd http://www.garmin.com/xmlschemas/WaypointExtension/v1 http://www8.garmin.com/xmlschemas/WaypointExtensionv1.xsd http://www.garmin.com/xmlschemas/TrackPointExtension/v1 http://www.garmin.com/xmlschemas/TrackPointExtensionv1.xsd">
<metadata><link href="http://www.garmin.com"><text>Garmin International</text></link><time>2013-06-22T15:13:50Z</time></metadata>
<trk><name>rp2016_16.gpx</name><extensions><gpxx:TrackExtension><gpxx:DisplayColor>Cyan</gpxx:DisplayColor></gpxx:TrackExtension></extensions><trkseg>
<trkpt lat="46.49436" lon="6.70923"><ele></ele><time>2016-6-24T3:4:23Z</time></trkpt>
<trkpt lat="46.49436" lon="6.70923"><ele></ele><time>2016-6-24T3:4:26Z</time></trkpt>
<trkpt lat="46.49437" lon="6.70922"><ele></ele><time>2016-6-24T3:4:29Z</time></trkpt>
<trkpt lat="46.49437" lon="6.70922"><ele></ele><time>2016-6-24T3:4:32Z</time></trkpt>
<trkpt lat="46.49438" lon="6.70921"><ele></ele><time>2016-6-24T3:4:35Z</time></trkpt>
<trkpt lat="46.49438" lon="6.70919"><ele></ele><time>2016-6-24T3:4:38Z</time></trkpt>
<trkpt lat="46.49442" lon="6.7092"><ele></ele><time>2016-6-24T3:4:41Z</time></trkpt>
<trkpt lat="46.49439" lon="6.70956"><ele></ele><time>2016-6-24T3:4:44Z</time></trkpt>
<trkpt lat="46.4944" lon="6.70956"><ele></ele><time>2016-6-24T3:4:47Z</time></trkpt>
<trkpt lat="46.49437" lon="6.7095"><ele></ele><time>2016-6-24T3:4:50Z</time></trkpt>
<trkpt lat="46.49441" lon="6.70944"><ele></ele><time>2016-6-24T3:4:53Z</time></trkpt>
<trkpt lat="46.4945" lon="6.7093"><ele></ele><time>2016-6-24T3:4:56Z</time></trkpt>
<trkpt lat="46.49452" lon="6.70928"><ele></ele><time>2016-6-24T3:4:59Z</time></trkpt>
<trkpt lat="46.49454" lon="6.70925"><ele></ele><time>2016-6-24T3:5:2Z</time></trkpt>
<trkpt lat="46.49468" lon="6.70905"><ele></ele><time>2016-6-24T3:5:5Z</time></trkpt>
<trkpt lat="46.49479" lon="6.70896"><ele></ele><time>2016-6-24T3:5:8Z</time></trkpt>
<trkpt lat="46.49492" lon="6.70904"><ele></ele><time>2016-6-24T3:5:11Z</time></trkpt>
<trkpt lat="46.49495" lon="6.70913"><ele></ele><time>2016-6-24T3:5:14Z</time></trkpt>
<trkpt lat="46.49495" lon="6.70938"><ele></ele><time>2016-6-24T3:5:17Z</time></trkpt>
<trkpt lat="46.49491" lon="6.70945"><ele></ele><time>2016-6-24T3:5:20Z</time></trkpt>
<trkpt lat="46.49487" lon="6.70952"><ele></ele><time>2016-6-24T3:5:23Z</time></trkpt>
<trkpt lat="46.49476" lon="6.70975"><ele></ele><time>2016-6-24T3:5:26Z</time></trkpt>
<trkpt lat="46.49466" lon="6.70997"><ele></ele><time>2016-6-24T3:5:29Z</time></trkpt>
<trkpt lat="46.49454" lon="6.71019"><ele></ele><time>2016-6-24T3:5:32Z</time></trkpt>
<trkpt lat="46.49452" lon="6.71021"><ele></ele><time>2016-6-24T3:5:35Z</time></trkpt>
<trkpt lat="46.49435" lon="6.71038"><ele></ele><time>2016-6-24T3:5:38Z</time></trkpt>
<trkpt lat="46.49417" lon="6.71054"><ele></ele><time>2016-6-24T3:5:41Z</time></trkpt>
<trkpt lat="46.49406" lon="6.71059"><ele></ele><time>2016-6-24T3:5:44Z</time></trkpt>
<trkpt lat="46.49389" lon="6.71068"><ele></ele><time>2016-6-24T3:5:47Z</time></trkpt>
<trkpt lat="46.49372" lon="6.71083"><ele></ele><time>2016-6-24T3:5:50Z</time></trkpt>
<trkpt lat="46.49356" lon="6.71099"><ele></ele><time>2016-6-24T3:5:53Z</time></trkpt>
<trkpt lat="46.49342" lon="6.7112"><ele></ele><time>2016-6-24T3:5:56Z</time></trkpt>
<trkpt lat="46.49328" lon="6.71144"><ele></ele><time>2016-6-24T3:5:59Z</time></trkpt>
<trkpt lat="46.49326" lon="6.71148"><ele></ele><time>2016-6-24T3:6:2Z</time></trkpt>
<trkpt lat="46.49325" lon="6.71151"><ele></ele><time>2016-6-24T3:6:5Z</time></trkpt>
<trkpt lat="46.49324" lon="6.71154"><ele></ele><time>2016-6-24T3:6:8Z</time></trkpt>
<trkpt lat="46.49317" lon="6.71165"><ele></ele><time>2016-6-24T3:6:11Z</time></trkpt>
<trkpt lat="46.49313" lon="6.71174"><ele></ele><time>2016-6-24T3:6:14Z</time></trkpt>
<trkpt lat="46.49304" lon="6.7119"><ele></ele><time>2016-6-24T3:6:17Z</time></trkpt>
<trkpt lat="46.49303" lon="6.71192"><ele></ele><time>2016-6-24T3:6:20Z</time></trkpt>
<trkpt lat="46.49298" lon="6.71201"><ele></ele><time>2016-6-24T3:6:23Z</time></trkpt>
<trkpt lat="46.49284" lon="6.71218"><ele></ele><time>2016-6-24T3:6:26Z</time></trkpt>
<trkpt lat="46.49279" lon="6.71222"><ele></ele><time>2016-6-24T3:6:29Z</time></trkpt>
<trkpt lat="46.49273" lon="6.71229"><ele></ele><time>2016-6-24T3:6:32Z</time></trkpt>
<trkpt lat="46.49268" lon="6.71233"><ele></ele><time>2016-6-24T3:6:35Z</time></trkpt>
<trkpt lat="46.49253" lon="6.7125"><ele></ele><time>2016-6-24T3:6:38Z</time></trkpt>
<trkpt lat="46.49238" lon="6.71268"><ele></ele><time>2016-6-24T3:6:41Z</time></trkpt>
<trkpt lat="46.49231" lon="6.7128"><ele></ele><time>2016-6-24T3:6:44Z</time></trkpt>
<trkpt lat="46.4922" lon="6.71301"><ele></ele><time>2016-6-24T3:6:47Z</time></trkpt>
<trkpt lat="46.49209" lon="6.7133"><ele></ele><time>2016-6-24T3:6:50Z</time></trkpt>
<trkpt lat="46.49207" lon="6.71336"><ele></ele><time>2016-6-24T3:6:53Z</time></trkpt>
<trkpt lat="46.49205" lon="6.7136"><ele></ele><time>2016-6-24T3:6:56Z</time></trkpt>
<trkpt lat="46.49204" lon="6.7139"><ele></ele><time>2016-6-24T3:6:59Z</time></trkpt>
<trkpt lat="46.49204" lon="6.71416"><ele></ele><time>2016-6-24T3:7:2Z</time></trkpt>
<trkpt lat="46.49203" lon="6.71432"><ele></ele><time>2016-6-24T3:7:5Z</time></trkpt>
<trkpt lat="46.49198" lon="6.7146"><ele></ele><time>2016-6-24T3:7:8Z</time></trkpt>
<trkpt lat="46.49194" lon="6.7148"><ele></ele><time>2016-6-24T3:7:11Z</time></trkpt>
<trkpt lat="46.49189" lon="6.71497"><ele></ele><time>2016-6-24T3:7:14Z</time></trkpt>
<trkpt lat="46.49182" lon="6.71524"><ele></ele><time>2016-6-24T3:7:17Z</time></trkpt>
<trkpt lat="46.49179" lon="6.71535"><ele></ele><time>2016-6-24T3:7:20Z</time></trkpt>
<trkpt lat="46.49178" lon="6.7154"><ele></ele><time>2016-6-24T3:7:23Z</time></trkpt>
<trkpt lat="46.49165" lon="6.71564"><ele></ele><time>2016-6-24T3:7:26Z</time></trkpt>
<trkpt lat="46.49152" lon="6.71587"><ele></ele><time>2016-6-24T3:7:29Z</time></trkpt>
<trkpt lat="46.49142" lon="6.7161"><ele></ele><time>2016-6-24T3:7:32Z</time></trkpt>
<trkpt lat="46.49148" lon="6.71609"><ele></ele><time>2016-6-24T3:7:35Z</time></trkpt>
<trkpt lat="46.49136" lon="6.71615"><ele></ele><time>2016-6-24T3:7:38Z</time></trkpt>
<trkpt lat="46.49126" lon="6.71631"><ele></ele><time>2016-6-24T3:7:41Z</time></trkpt>
<trkpt lat="46.49111" lon="6.71653"><ele></ele><time>2016-6-24T3:7:44Z</time></trkpt>
<trkpt lat="46.49097" lon="6.71675"><ele></ele><time>2016-6-24T3:7:47Z</time></trkpt>
<trkpt lat="46.49083" lon="6.71696"><ele></ele><time>2016-6-24T3:7:50Z</time></trkpt>
<trkpt lat="46.49069" lon="6.71718"><ele></ele><time>2016-6-24T3:7:53Z</time></trkpt>
<trkpt lat="46.49051" lon="6.71735"><ele></ele><time>2016-6-24T3:7:56Z</time></trkpt>
<trkpt lat="46.49032" lon="6.71754"><ele></ele><time>2016-6-24T3:7:59Z</time></trkpt>
<trkpt lat="46.49022" lon="6.71764"><ele></ele><time>2016-6-24T3:8:2Z</time></trkpt>
<trkpt lat="46.49014" lon="6.71773"><ele></ele><time>2016-6-24T3:8:5Z</time></trkpt>
<trkpt lat="46.48995" lon="6.71789"><ele></ele><time>2016-6-24T3:8:8Z</time></trkpt>
<trkpt lat="46.48979" lon="6.71814"><ele></ele><time>2016-6-24T3:8:11Z</time></trkpt>
<trkpt lat="46.48967" lon="6.71835"><ele></ele><time>2016-6-24T3:8:14Z</time></trkpt>
<trkpt lat="46.48953" lon="6.71857"><ele></ele><time>2016-6-24T3:8:17Z</time></trkpt>
<trkpt lat="46.48938" lon="6.71881"><ele></ele><time>2016-6-24T3:8:20Z</time></trkpt>
<trkpt lat="46.48925" lon="6.71904"><ele></ele><time>2016-6-24T3:8:23Z</time></trkpt>
<trkpt lat="46.48912" lon="6.71928"><ele></ele><time>2016-6-24T3:8:26Z</time></trkpt>
<trkpt lat="46.48899" lon="6.71949"><ele></ele><time>2016-6-24T3:8:29Z</time></trkpt>
<trkpt lat="46.48888" lon="6.71966"><ele></ele><time>2016-6-24T3:8:32Z</time></trkpt>
<trkpt lat="46.48875" lon="6.71988"><ele></ele><time>2016-6-24T3:8:35Z</time></trkpt>
<trkpt lat="46.48862" lon="6.72008"><ele></ele><time>2016-6-24T3:8:38Z</time></trkpt>
<trkpt lat="46.48851" lon="6.72034"><ele></ele><time>2016-6-24T3:8:41Z</time></trkpt>
<trkpt lat="46.4884" lon="6.72061"><ele></ele><time>2016-6-24T3:8:44Z</time></trkpt>
<trkpt lat="46.48833" lon="6.72081"><ele></ele><time>2016-6-24T3:8:47Z</time></trkpt>
<trkpt lat="46.48826" lon="6.72107"><ele></ele><time>2016-6-24T3:8:50Z</time></trkpt>
<trkpt lat="46.48821" lon="6.72136"><ele></ele><time>2016-6-24T3:8:53Z</time></trkpt>
<trkpt lat="46.4882" lon="6.72145"><ele></ele><time>2016-6-24T3:8:56Z</time></trkpt>
<trkpt lat="46.4882" lon="6.72163"><ele></ele><time>2016-6-24T3:8:59Z</time></trkpt>
<trkpt lat="46.48821" lon="6.7217"><ele></ele><time>2016-6-24T3:9:2Z</time></trkpt>
<trkpt lat="46.48821" lon="6.72178"><ele></ele><time>2016-6-24T3:9:5Z</time></trkpt>
<trkpt lat="46.4882" lon="6.7217"><ele></ele><time>2016-6-24T3:9:8Z</time></trkpt>
<trkpt lat="46.48825" lon="6.72162"><ele></ele><time>2016-6-24T3:9:11Z</time></trkpt>
<trkpt lat="46.48833" lon="6.7216"><ele></ele><time>2016-6-24T3:9:14Z</time></trkpt>
<trkpt lat="46.48835" lon="6.72159"><ele></ele><time>2016-6-24T3:9:17Z</time></trkpt>
<trkpt lat="46.48853" lon="6.72151"><ele></ele><time>2016-6-24T3:9:20Z</time></trkpt>
<trkpt lat="46.48867" lon="6.72134"><ele></ele><time>2016-6-24T3:9:23Z</time></trkpt>
<trkpt lat="46.48874" lon="6.72118"><ele></ele><time>2016-6-24T3:9:26Z</time></trkpt>
<trkpt lat="46.4888" lon="6.72105"><ele></ele><time>2016-6-24T3:9:29Z</time></trkpt>
<trkpt lat="46.48894" lon="6.72072"><ele></ele><time>2016-6-24T3:9:32Z</time></trkpt>
<trkpt lat="46.48901" lon="6.72048"><ele></ele><time>2016-6-24T3:9:35Z</time></trkpt>
<trkpt lat="46.48912" lon="6.72025"><ele></ele><time>2016-6-24T3:9:38Z</time></trkpt>
<trkpt lat="46.48921" lon="6.72012"><ele></ele><time>2016-6-24T3:9:41Z</time></trkpt>
<trkpt lat="46.48932" lon="6.71997"><ele></ele><time>2016-6-24T3:9:44Z</time></trkpt>
<trkpt lat="46.48946" lon="6.7198"><ele></ele><time>2016-6-24T3:9:47Z</time></trkpt>
<trkpt lat="46.4895" lon="6.71978"><ele></ele><time>2016-6-24T3:9:50Z</time></trkpt>
<trkpt lat="46.48968" lon="6.7198"><ele></ele><time>2016-6-24T3:9:53Z</time></trkpt>
<trkpt lat="46.48987" lon="6.71986"><ele></ele><time>2016-6-24T3:9:56Z</time></trkpt>
<trkpt lat="46.49005" lon="6.71987"><ele></ele><time>2016-6-24T3:9:59Z</time></trkpt>
<trkpt lat="46.49015" lon="6.71986"><ele></ele><time>2016-6-24T3:10:2Z</time></trkpt>
<trkpt lat="46.49032" lon="6.71968"><ele></ele><time>2016-6-24T3:10:5Z</time></trkpt>
<trkpt lat="46.49039" lon="6.71954"><ele></ele><time>2016-6-24T3:10:8Z</time></trkpt>
<trkpt lat="46.49045" lon="6.71938"><ele></ele><time>2016-6-24T3:10:11Z</time></trkpt>
<trkpt lat="46.49047" lon="6.71934"><ele></ele><time>2016-6-24T3:10:14Z</time></trkpt>
<trkpt lat="46.49059" lon="6.71911"><ele></ele><time>2016-6-24T3:10:17Z</time></trkpt>
<trkpt lat="46.49068" lon="6.7191"><ele></ele><time>2016-6-24T3:10:20Z</time></trkpt>
<trkpt lat="46.49078" lon="6.71918"><ele></ele><time>2016-6-24T3:10:23Z</time></trkpt>
<trkpt lat="46.49091" lon="6.71928"><ele></ele><time>2016-6-24T3:10:26Z</time></trkpt>
<trkpt lat="46.49101" lon="6.71902"><ele></ele><time>2016-6-24T3:10:29Z</time></trkpt>
<trkpt lat="46.49109" lon="6.71877"><ele></ele><time>2016-6-24T3:10:32Z</time></trkpt>
<trkpt lat="46.49114" lon="6.7187"><ele></ele><time>2016-6-24T3:10:35Z</time></trkpt>
<trkpt lat="46.49133" lon="6.71868"><ele></ele><time>2016-6-24T3:10:38Z</time></trkpt>
<trkpt lat="46.49145" lon="6.71869"><ele></ele><time>2016-6-24T3:10:41Z</time></trkpt>
<trkpt lat="46.49151" lon="6.71869"><ele></ele><time>2016-6-24T3:10:44Z</time></trkpt>
<trkpt lat="46.49157" lon="6.71869"><ele></ele><time>2016-6-24T3:10:47Z</time></trkpt>
<trkpt lat="46.49159" lon="6.71868"><ele></ele><time>2016-6-24T3:10:50Z</time></trkpt>
<trkpt lat="46.49174" lon="6.71857"><ele></ele><time>2016-6-24T3:10:53Z</time></trkpt>
<trkpt lat="46.4919" lon="6.71836"><ele></ele><time>2016-6-24T3:10:56Z</time></trkpt>
<trkpt lat="46.49195" lon="6.71831"><ele></ele><time>2016-6-24T3:10:59Z</time></trkpt>
<trkpt lat="46.49199" lon="6.71827"><ele></ele><time>2016-6-24T3:11:2Z</time></trkpt>
<trkpt lat="46.49213" lon="6.71809"><ele></ele><time>2016-6-24T3:11:5Z</time></trkpt>
<trkpt lat="46.49227" lon="6.7179"><ele></ele><time>2016-6-24T3:11:8Z</time></trkpt>
<trkpt lat="46.49235" lon="6.71776"><ele></ele><time>2016-6-24T3:11:11Z</time></trkpt>
<trkpt lat="46.49241" lon="6.71761"><ele></ele><time>2016-6-24T3:11:14Z</time></trkpt>
<trkpt lat="46.49247" lon="6.71741"><ele></ele><time>2016-6-24T3:11:17Z</time></trkpt>
<trkpt lat="46.4925" lon="6.71735"><ele></ele><time>2016-6-24T3:11:20Z</time></trkpt>
<trkpt lat="46.4926" lon="6.71713"><ele></ele><time>2016-6-24T3:11:23Z</time></trkpt>
<trkpt lat="46.49278" lon="6.71683"><ele></ele><time>2016-6-24T3:11:26Z</time></trkpt>
<trkpt lat="46.4929" lon="6.71665"><ele></ele><time>2016-6-24T3:11:29Z</time></trkpt>
<trkpt lat="46.49296" lon="6.71659"><ele></ele><time>2016-6-24T3:11:32Z</time></trkpt>
<trkpt lat="46.49313" lon="6.7165"><ele></ele><time>2016-6-24T3:11:35Z</time></trkpt>
<trkpt lat="46.49323" lon="6.71641"><ele></ele><time>2016-6-24T3:11:38Z</time></trkpt>
<trkpt lat="46.49333" lon="6.71638"><ele></ele><time>2016-6-24T3:11:41Z</time></trkpt>
<trkpt lat="46.49337" lon="6.71636"><ele></ele><time>2016-6-24T3:11:44Z</time></trkpt>
<trkpt lat="46.4934" lon="6.71635"><ele></ele><time>2016-6-24T3:11:47Z</time></trkpt>
<trkpt lat="46.49343" lon="6.71634"><ele></ele><time>2016-6-24T3:11:50Z</time></trkpt>
<trkpt lat="46.49346" lon="6.71633"><ele></ele><time>2016-6-24T3:11:53Z</time></trkpt>
<trkpt lat="46.49351" lon="6.71626"><ele></ele><time>2016-6-24T3:11:56Z</time></trkpt>
<trkpt lat="46.49346" lon="6.71646"><ele></ele><time>2016-6-24T3:11:59Z</time></trkpt>
<trkpt lat="46.49361" lon="6.7167"><ele></ele><time>2016-6-24T3:12:2Z</time></trkpt>
<trkpt lat="46.49367" lon="6.71673"><ele></ele><time>2016-6-24T3:12:5Z</time></trkpt>
<trkpt lat="46.49377" lon="6.71699"><ele></ele><time>2016-6-24T3:12:8Z</time></trkpt>
<trkpt lat="46.49378" lon="6.71729"><ele></ele><time>2016-6-24T3:12:11Z</time></trkpt>
<trkpt lat="46.49378" lon="6.71735"><ele></ele><time>2016-6-24T3:12:14Z</time></trkpt>
<trkpt lat="46.49378" lon="6.71763"><ele></ele><time>2016-6-24T3:12:17Z</time></trkpt>
<trkpt lat="46.49381" lon="6.71792"><ele></ele><time>2016-6-24T3:12:20Z</time></trkpt>
<trkpt lat="46.49379" lon="6.71826"><ele></ele><time>2016-6-24T3:12:23Z</time></trkpt>
<trkpt lat="46.49379" lon="6.71859"><ele></ele><time>2016-6-24T3:12:26Z</time></trkpt>
<trkpt lat="46.49378" lon="6.71891"><ele></ele><time>2016-6-24T3:12:29Z</time></trkpt>
<trkpt lat="46.49379" lon="6.71913"><ele></ele><time>2016-6-24T3:12:32Z</time></trkpt>
<trkpt lat="46.49383" lon="6.7194"><ele></ele><time>2016-6-24T3:12:35Z</time></trkpt>
<trkpt lat="46.49388" lon="6.71961"><ele></ele><time>2016-6-24T3:12:38Z</time></trkpt>
<trkpt lat="46.49395" lon="6.7198"><ele></ele><time>2016-6-24T3:12:41Z</time></trkpt>
<trkpt lat="46.49405" lon="6.72015"><ele></ele><time>2016-6-24T3:12:44Z</time></trkpt>
<trkpt lat="46.49404" lon="6.72042"><ele></ele><time>2016-6-24T3:12:47Z</time></trkpt>
<trkpt lat="46.49409" lon="6.72069"><ele></ele><time>2016-6-24T3:12:50Z</time></trkpt>
<trkpt lat="46.49416" lon="6.72097"><ele></ele><time>2016-6-24T3:12:53Z</time></trkpt>
<trkpt lat="46.49416" lon="6.72131"><ele></ele><time>2016-6-24T3:12:56Z</time></trkpt>
<trkpt lat="46.49417" lon="6.7216"><ele></ele><time>2016-6-24T3:12:59Z</time></trkpt>
<trkpt lat="46.49419" lon="6.72192"><ele></ele><time>2016-6-24T3:13:2Z</time></trkpt>
<trkpt lat="46.4942" lon="6.72222"><ele></ele><time>2016-6-24T3:13:5Z</time></trkpt>
<trkpt lat="46.49421" lon="6.7225"><ele></ele><time>2016-6-24T3:13:8Z</time></trkpt>
<trkpt lat="46.49422" lon="6.72277"><ele></ele><time>2016-6-24T3:13:11Z</time></trkpt>
<trkpt lat="46.49423" lon="6.72305"><ele></ele><time>2016-6-24T3:13:14Z</time></trkpt>
<trkpt lat="46.49425" lon="6.72333"><ele></ele><time>2016-6-24T3:13:17Z</time></trkpt>
<trkpt lat="46.49426" lon="6.7236"><ele></ele><time>2016-6-24T3:13:20Z</time></trkpt>
<trkpt lat="46.49427" lon="6.72387"><ele></ele><time>2016-6-24T3:13:23Z</time></trkpt>
<trkpt lat="46.49429" lon="6.72413"><ele></ele><time>2016-6-24T3:13:26Z</time></trkpt>
<trkpt lat="46.4943" lon="6.72447"><ele></ele><time>2016-6-24T3:13:29Z</time></trkpt>
<trkpt lat="46.49432" lon="6.72477"><ele></ele><time>2016-6-24T3:13:32Z</time></trkpt>
<trkpt lat="46.49433" lon="6.72499"><ele></ele><time>2016-6-24T3:13:35Z</time></trkpt>
<trkpt lat="46.49434" lon="6.72506"><ele></ele><time>2016-6-24T3:13:38Z</time></trkpt>
<trkpt lat="46.49434" lon="6.72512"><ele></ele><time>2016-6-24T3:13:41Z</time></trkpt>
<trkpt lat="46.49439" lon="6.72537"><ele></ele><time>2016-6-24T3:13:44Z</time></trkpt>
<trkpt lat="46.49443" lon="6.72547"><ele></ele><time>2016-6-24T3:13:47Z</time></trkpt>
<trkpt lat="46.49445" lon="6.72552"><ele></ele><time>2016-6-24T3:13:50Z</time></trkpt>
<trkpt lat="46.49459" lon="6.72576"><ele></ele><time>2016-6-24T3:13:53Z</time></trkpt>
<trkpt lat="46.49464" lon="6.72586"><ele></ele><time>2016-6-24T3:13:56Z</time></trkpt>
<trkpt lat="46.49481" lon="6.72599"><ele></ele><time>2016-6-24T3:13:59Z</time></trkpt>
<trkpt lat="46.49498" lon="6.72612"><ele></ele><time>2016-6-24T3:14:2Z</time></trkpt>
<trkpt lat="46.49492" lon="6.7264"><ele></ele><time>2016-6-24T3:14:5Z</time></trkpt>
<trkpt lat="46.49479" lon="6.72658"><ele></ele><time>2016-6-24T3:14:8Z</time></trkpt>
<trkpt lat="46.49476" lon="6.72663"><ele></ele><time>2016-6-24T3:14:11Z</time></trkpt>
<trkpt lat="46.4947" lon="6.72672"><ele></ele><time>2016-6-24T3:14:14Z</time></trkpt>
<trkpt lat="46.49463" lon="6.72686"><ele></ele><time>2016-6-24T3:14:17Z</time></trkpt>
<trkpt lat="46.49453" lon="6.7271"><ele></ele><time>2016-6-24T3:14:20Z</time></trkpt>
<trkpt lat="46.49442" lon="6.72732"><ele></ele><time>2016-6-24T3:14:23Z</time></trkpt>
<trkpt lat="46.49429" lon="6.7275"><ele></ele><time>2016-6-24T3:14:26Z</time></trkpt>
<trkpt lat="46.49414" lon="6.72764"><ele></ele><time>2016-6-24T3:14:29Z</time></trkpt>
<trkpt lat="46.4941" lon="6.72768"><ele></ele><time>2016-6-24T3:14:32Z</time></trkpt>
<trkpt lat="46.49407" lon="6.72771"><ele></ele><time>2016-6-24T3:14:35Z</time></trkpt>
<trkpt lat="46.4939" lon="6.72787"><ele></ele><time>2016-6-24T3:14:38Z</time></trkpt>
<trkpt lat="46.49379" lon="6.72807"><ele></ele><time>2016-6-24T3:14:41Z</time></trkpt>
<trkpt lat="46.49379" lon="6.72836"><ele></ele><time>2016-6-24T3:14:44Z</time></trkpt>
<trkpt lat="46.49393" lon="6.72854"><ele></ele><time>2016-6-24T3:14:47Z</time></trkpt>
<trkpt lat="46.49412" lon="6.72851"><ele></ele><time>2016-6-24T3:14:50Z</time></trkpt>
<trkpt lat="46.49427" lon="6.72832"><ele></ele><time>2016-6-24T3:14:53Z</time></trkpt>
<trkpt lat="46.49437" lon="6.72818"><ele></ele><time>2016-6-24T3:14:56Z</time></trkpt>
<trkpt lat="46.49442" lon="6.72811"><ele></ele><time>2016-6-24T3:14:59Z</time></trkpt>
<trkpt lat="46.49459" lon="6.72789"><ele></ele><time>2016-6-24T3:15:2Z</time></trkpt>
<trkpt lat="46.49477" lon="6.72775"><ele></ele><time>2016-6-24T3:15:5Z</time></trkpt>
<trkpt lat="46.49494" lon="6.72765"><ele></ele><time>2016-6-24T3:15:8Z</time></trkpt>
<trkpt lat="46.49512" lon="6.72754"><ele></ele><time>2016-6-24T3:15:11Z</time></trkpt>
<trkpt lat="46.4953" lon="6.72742"><ele></ele><time>2016-6-24T3:15:14Z</time></trkpt>
<trkpt lat="46.49554" lon="6.7272"><ele></ele><time>2016-6-24T3:15:17Z</time></trkpt>
<trkpt lat="46.4957" lon="6.72707"><ele></ele><time>2016-6-24T3:15:20Z</time></trkpt>
<trkpt lat="46.49584" lon="6.72689"><ele></ele><time>2016-6-24T3:15:23Z</time></trkpt>
<trkpt lat="46.49595" lon="6.72666"><ele></ele><time>2016-6-24T3:15:26Z</time></trkpt>
<trkpt lat="46.49609" lon="6.72646"><ele></ele><time>2016-6-24T3:15:29Z</time></trkpt>
<trkpt lat="46.49623" lon="6.72626"><ele></ele><time>2016-6-24T3:15:32Z</time></trkpt>
<trkpt lat="46.49636" lon="6.72607"><ele></ele><time>2016-6-24T3:15:35Z</time></trkpt>
<trkpt lat="46.49657" lon="6.72579"><ele></ele><time>2016-6-24T3:15:38Z</time></trkpt>
<trkpt lat="46.49659" lon="6.72579"><ele></ele><time>2016-6-24T3:15:41Z</time></trkpt>
<trkpt lat="46.49668" lon="6.72581"><ele></ele><time>2016-6-24T3:15:44Z</time></trkpt>
<trkpt lat="46.49673" lon="6.72586"><ele></ele><time>2016-6-24T3:15:47Z</time></trkpt>
<trkpt lat="46.49682" lon="6.72594"><ele></ele><time>2016-6-24T3:15:50Z</time></trkpt>
<trkpt lat="46.49689" lon="6.72604"><ele></ele><time>2016-6-24T3:15:53Z</time></trkpt>
<trkpt lat="46.49693" lon="6.72615"><ele></ele><time>2016-6-24T3:15:56Z</time></trkpt>
<trkpt lat="46.4969" lon="6.7263"><ele></ele><time>2016-6-24T3:15:59Z</time></trkpt>
<trkpt lat="46.49676" lon="6.72659"><ele></ele><time>2016-6-24T3:16:2Z</time></trkpt>
<trkpt lat="46.49667" lon="6.72682"><ele></ele><time>2016-6-24T3:16:5Z</time></trkpt>
<trkpt lat="46.49661" lon="6.72699"><ele></ele><time>2016-6-24T3:16:8Z</time></trkpt>
<trkpt lat="46.49659" lon="6.72703"><ele></ele><time>2016-6-24T3:16:11Z</time></trkpt>
<trkpt lat="46.49653" lon="6.72719"><ele></ele><time>2016-6-24T3:16:14Z</time></trkpt>
<trkpt lat="46.49646" lon="6.72736"><ele></ele><time>2016-6-24T3:16:17Z</time></trkpt>
<trkpt lat="46.49644" lon="6.7274"><ele></ele><time>2016-6-24T3:16:20Z</time></trkpt>
<trkpt lat="46.49643" lon="6.72743"><ele></ele><time>2016-6-24T3:16:23Z</time></trkpt>
<trkpt lat="46.49642" lon="6.72745"><ele></ele><time>2016-6-24T3:16:26Z</time></trkpt>
<trkpt lat="46.49639" lon="6.72752"><ele></ele><time>2016-6-24T3:16:29Z</time></trkpt>
<trkpt lat="46.49634" lon="6.7276"><ele></ele><time>2016-6-24T3:16:32Z</time></trkpt>
<trkpt lat="46.49619" lon="6.72782"><ele></ele><time>2016-6-24T3:16:35Z</time></trkpt>
<trkpt lat="46.49617" lon="6.72785"><ele></ele><time>2016-6-24T3:16:38Z</time></trkpt>
<trkpt lat="46.49613" lon="6.72795"><ele></ele><time>2016-6-24T3:16:41Z</time></trkpt>
<trkpt lat="46.49608" lon="6.72809"><ele></ele><time>2016-6-24T3:16:44Z</time></trkpt>
<trkpt lat="46.49604" lon="6.72831"><ele></ele><time>2016-6-24T3:16:47Z</time></trkpt>
<trkpt lat="46.49604" lon="6.72836"><ele></ele><time>2016-6-24T3:16:50Z</time></trkpt>
<trkpt lat="46.49606" lon="6.72862"><ele></ele><time>2016-6-24T3:16:53Z</time></trkpt>
<trkpt lat="46.49613" lon="6.72888"><ele></ele><time>2016-6-24T3:16:56Z</time></trkpt>
<trkpt lat="46.49617" lon="6.72899"><ele></ele><time>2016-6-24T3:16:59Z</time></trkpt>
<trkpt lat="46.49625" lon="6.72917"><ele></ele><time>2016-6-24T3:17:2Z</time></trkpt>
<trkpt lat="46.49635" lon="6.72942"><ele></ele><time>2016-6-24T3:17:5Z</time></trkpt>
<trkpt lat="46.49642" lon="6.72956"><ele></ele><time>2016-6-24T3:17:8Z</time></trkpt>
<trkpt lat="46.49652" lon="6.7298"><ele></ele><time>2016-6-24T3:17:11Z</time></trkpt>
<trkpt lat="46.49656" lon="6.7299"><ele></ele><time>2016-6-24T3:17:14Z</time></trkpt>
<trkpt lat="46.49666" lon="6.73013"><ele></ele><time>2016-6-24T3:17:17Z</time></trkpt>
<trkpt lat="46.49676" lon="6.73039"><ele></ele><time>2016-6-24T3:17:20Z</time></trkpt>
<trkpt lat="46.49687" lon="6.73064"><ele></ele><time>2016-6-24T3:17:23Z</time></trkpt>
<trkpt lat="46.49701" lon="6.73092"><ele></ele><time>2016-6-24T3:17:26Z</time></trkpt>
<trkpt lat="46.49711" lon="6.73113"><ele></ele><time>2016-6-24T3:17:29Z</time></trkpt>
<trkpt lat="46.49715" lon="6.73122"><ele></ele><time>2016-6-24T3:17:32Z</time></trkpt>
<trkpt lat="46.4972" lon="6.73132"><ele></ele><time>2016-6-24T3:17:35Z</time></trkpt>
<trkpt lat="46.49727" lon="6.73146"><ele></ele><time>2016-6-24T3:17:38Z</time></trkpt>
<trkpt lat="46.49739" lon="6.7316"><ele></ele><time>2016-6-24T3:17:41Z</time></trkpt>
<trkpt lat="46.49749" lon="6.73167"><ele></ele><time>2016-6-24T3:17:44Z</time></trkpt>
<trkpt lat="46.49768" lon="6.73178"><ele></ele><time>2016-6-24T3:17:47Z</time></trkpt>
<trkpt lat="46.49786" lon="6.73182"><ele></ele><time>2016-6-24T3:17:50Z</time></trkpt>
<trkpt lat="46.49805" lon="6.73182"><ele></ele><time>2016-6-24T3:17:53Z</time></trkpt>
<trkpt lat="46.49826" lon="6.73187"><ele></ele><time>2016-6-24T3:17:56Z</time></trkpt>
<trkpt lat="46.49847" lon="6.73182"><ele></ele><time>2016-6-24T3:17:59Z</time></trkpt>
<trkpt lat="46.49865" lon="6.73171"><ele></ele><time>2016-6-24T3:18:2Z</time></trkpt>
<trkpt lat="46.49869" lon="6.73171"><ele></ele><time>2016-6-24T3:18:5Z</time></trkpt>
<trkpt lat="46.49872" lon="6.73172"><ele></ele><time>2016-6-24T3:18:8Z</time></trkpt>
<trkpt lat="46.49877" lon="6.73179"><ele></ele><time>2016-6-24T3:18:11Z</time></trkpt>
<trkpt lat="46.49879" lon="6.73187"><ele></ele><time>2016-6-24T3:18:14Z</time></trkpt>
<trkpt lat="46.49885" lon="6.73211"><ele></ele><time>2016-6-24T3:18:17Z</time></trkpt>
<trkpt lat="46.49895" lon="6.7323"><ele></ele><time>2016-6-24T3:18:20Z</time></trkpt>
<trkpt lat="46.49906" lon="6.73249"><ele></ele><time>2016-6-24T3:18:23Z</time></trkpt>
<trkpt lat="46.49916" lon="6.73273"><ele></ele><time>2016-6-24T3:18:26Z</time></trkpt>
<trkpt lat="46.49925" lon="6.73301"><ele></ele><time>2016-6-24T3:18:29Z</time></trkpt>
<trkpt lat="46.49933" lon="6.73325"><ele></ele><time>2016-6-24T3:18:32Z</time></trkpt>
<trkpt lat="46.49941" lon="6.73351"><ele></ele><time>2016-6-24T3:18:35Z</time></trkpt>
<trkpt lat="46.4995" lon="6.73378"><ele></ele><time>2016-6-24T3:18:38Z</time></trkpt>
<trkpt lat="46.49957" lon="6.73401"><ele></ele><time>2016-6-24T3:18:41Z</time></trkpt>
<trkpt lat="46.49961" lon="6.73414"><ele></ele><time>2016-6-24T3:18:44Z</time></trkpt>
<trkpt lat="46.49967" lon="6.73426"><ele></ele><time>2016-6-24T3:18:47Z</time></trkpt>
<trkpt lat="46.49981" lon="6.73444"><ele></ele><time>2016-6-24T3:18:50Z</time></trkpt>
<trkpt lat="46.49998" lon="6.73453"><ele></ele><time>2016-6-24T3:18:53Z</time></trkpt>
<trkpt lat="46.50017" lon="6.73452"><ele></ele><time>2016-6-24T3:18:56Z</time></trkpt>
<trkpt lat="46.50034" lon="6.73441"><ele></ele><time>2016-6-24T3:18:59Z</time></trkpt>
<trkpt lat="46.50048" lon="6.73431"><ele></ele><time>2016-6-24T3:19:2Z</time></trkpt>
<trkpt lat="46.50064" lon="6.73448"><ele></ele><time>2016-6-24T3:19:5Z</time></trkpt>
<trkpt lat="46.50078" lon="6.73475"><ele></ele><time>2016-6-24T3:19:8Z</time></trkpt>
<trkpt lat="46.50089" lon="6.73497"><ele></ele><time>2016-6-24T3:19:11Z</time></trkpt>
<trkpt lat="46.501" lon="6.73521"><ele></ele><time>2016-6-24T3:19:14Z</time></trkpt>
<trkpt lat="46.50109" lon="6.73545"><ele></ele><time>2016-6-24T3:19:17Z</time></trkpt>
<trkpt lat="46.50114" lon="6.73565"><ele></ele><time>2016-6-24T3:19:20Z</time></trkpt>
<trkpt lat="46.50118" lon="6.73591"><ele></ele><time>2016-6-24T3:19:23Z</time></trkpt>
<trkpt lat="46.50099" lon="6.73602"><ele></ele><time>2016-6-24T3:19:26Z</time></trkpt>
<trkpt lat="46.50075" lon="6.736"><ele></ele><time>2016-6-24T3:19:29Z</time></trkpt>
<trkpt lat="46.50066" lon="6.73597"><ele></ele><time>2016-6-24T3:19:32Z</time></trkpt>
<trkpt lat="46.50056" lon="6.73596"><ele></ele><time>2016-6-24T3:19:35Z</time></trkpt>
<trkpt lat="46.50037" lon="6.73599"><ele></ele><time>2016-6-24T3:19:38Z</time></trkpt>
<trkpt lat="46.50016" lon="6.73613"><ele></ele><time>2016-6-24T3:19:41Z</time></trkpt>
<trkpt lat="46.49996" lon="6.7363"><ele></ele><time>2016-6-24T3:19:44Z</time></trkpt>
<trkpt lat="46.49977" lon="6.73652"><ele></ele><time>2016-6-24T3:19:47Z</time></trkpt>
<trkpt lat="46.49961" lon="6.73678"><ele></ele><time>2016-6-24T3:19:50Z</time></trkpt>
<trkpt lat="46.49951" lon="6.73705"><ele></ele><time>2016-6-24T3:19:53Z</time></trkpt>
<trkpt lat="46.49946" lon="6.73729"><ele></ele><time>2016-6-24T3:19:56Z</time></trkpt>
<trkpt lat="46.49943" lon="6.73749"><ele></ele><time>2016-6-24T3:19:59Z</time></trkpt>
<trkpt lat="46.4994" lon="6.73757"><ele></ele><time>2016-6-24T3:20:2Z</time></trkpt>
<trkpt lat="46.49936" lon="6.73782"><ele></ele><time>2016-6-24T3:20:5Z</time></trkpt>
<trkpt lat="46.49935" lon="6.73786"><ele></ele><time>2016-6-24T3:20:8Z</time></trkpt>
<trkpt lat="46.49934" lon="6.73793"><ele></ele><time>2016-6-24T3:20:11Z</time></trkpt>
<trkpt lat="46.49933" lon="6.73803"><ele></ele><time>2016-6-24T3:20:14Z</time></trkpt>
<trkpt lat="46.49932" lon="6.73816"><ele></ele><time>2016-6-24T3:20:17Z</time></trkpt>
<trkpt lat="46.49931" lon="6.73819"><ele></ele><time>2016-6-24T3:20:20Z</time></trkpt>
<trkpt lat="46.49927" lon="6.73846"><ele></ele><time>2016-6-24T3:20:23Z</time></trkpt>
<trkpt lat="46.49921" lon="6.73872"><ele></ele><time>2016-6-24T3:20:26Z</time></trkpt>
<trkpt lat="46.49914" lon="6.73896"><ele></ele><time>2016-6-24T3:20:29Z</time></trkpt>
<trkpt lat="46.49911" lon="6.73901"><ele></ele><time>2016-6-24T3:20:32Z</time></trkpt>
<trkpt lat="46.49907" lon="6.73905"><ele></ele><time>2016-6-24T3:20:35Z</time></trkpt>
<trkpt lat="46.49889" lon="6.7392"><ele></ele><time>2016-6-24T3:20:38Z</time></trkpt>
<trkpt lat="46.49881" lon="6.73926"><ele></ele><time>2016-6-24T3:20:41Z</time></trkpt>
<trkpt lat="46.49871" lon="6.73934"><ele></ele><time>2016-6-24T3:20:44Z</time></trkpt>
<trkpt lat="46.49864" lon="6.73943"><ele></ele><time>2016-6-24T3:20:47Z</time></trkpt>
<trkpt lat="46.49859" lon="6.7395"><ele></ele><time>2016-6-24T3:20:50Z</time></trkpt>
<trkpt lat="46.49856" lon="6.73956"><ele></ele><time>2016-6-24T3:20:53Z</time></trkpt>
<trkpt lat="46.49849" lon="6.73986"><ele></ele><time>2016-6-24T3:20:56Z</time></trkpt>
<trkpt lat="46.49845" lon="6.74006"><ele></ele><time>2016-6-24T3:20:59Z</time></trkpt>
<trkpt lat="46.49837" lon="6.74033"><ele></ele><time>2016-6-24T3:21:2Z</time></trkpt>
<trkpt lat="46.49826" lon="6.74057"><ele></ele><time>2016-6-24T3:21:5Z</time></trkpt>
<trkpt lat="46.49818" lon="6.74081"><ele></ele><time>2016-6-24T3:21:8Z</time></trkpt>
<trkpt lat="46.49817" lon="6.74107"><ele></ele><time>2016-6-24T3:21:11Z</time></trkpt>
<trkpt lat="46.49818" lon="6.74135"><ele></ele><time>2016-6-24T3:21:14Z</time></trkpt>
<trkpt lat="46.49814" lon="6.74163"><ele></ele><time>2016-6-24T3:21:17Z</time></trkpt>
<trkpt lat="46.49811" lon="6.74179"><ele></ele><time>2016-6-24T3:21:20Z</time></trkpt>
<trkpt lat="46.49817" lon="6.74182"><ele></ele><time>2016-6-24T3:21:23Z</time></trkpt>
<trkpt lat="46.49816" lon="6.74161"><ele></ele><time>2016-6-24T3:21:26Z</time></trkpt>
<trkpt lat="46.49819" lon="6.74136"><ele></ele><time>2016-6-24T3:21:29Z</time></trkpt>
<trkpt lat="46.49819" lon="6.74105"><ele></ele><time>2016-6-24T3:21:32Z</time></trkpt>
<trkpt lat="46.4982" lon="6.74094"><ele></ele><time>2016-6-24T3:21:35Z</time></trkpt>
<trkpt lat="46.49828" lon="6.74066"><ele></ele><time>2016-6-24T3:21:38Z</time></trkpt>
<trkpt lat="46.49838" lon="6.7404"><ele></ele><time>2016-6-24T3:21:41Z</time></trkpt>
<trkpt lat="46.49844" lon="6.74022"><ele></ele><time>2016-6-24T3:21:44Z</time></trkpt>
<trkpt lat="46.49849" lon="6.74002"><ele></ele><time>2016-6-24T3:21:47Z</time></trkpt>
<trkpt lat="46.49853" lon="6.73981"><ele></ele><time>2016-6-24T3:21:50Z</time></trkpt>
<trkpt lat="46.49859" lon="6.7396"><ele></ele><time>2016-6-24T3:21:53Z</time></trkpt>
<trkpt lat="46.49875" lon="6.73931"><ele></ele><time>2016-6-24T3:21:56Z</time></trkpt>
<trkpt lat="46.49891" lon="6.73917"><ele></ele><time>2016-6-24T3:21:59Z</time></trkpt>
<trkpt lat="46.49907" lon="6.739"><ele></ele><time>2016-6-24T3:22:2Z</time></trkpt>
<trkpt lat="46.49918" lon="6.73875"><ele></ele><time>2016-6-24T3:22:5Z</time></trkpt>
<trkpt lat="46.49926" lon="6.73847"><ele></ele><time>2016-6-24T3:22:8Z</time></trkpt>
<trkpt lat="46.49931" lon="6.73816"><ele></ele><time>2016-6-24T3:22:11Z</time></trkpt>
<trkpt lat="46.49937" lon="6.73784"><ele></ele><time>2016-6-24T3:22:14Z</time></trkpt>
<trkpt lat="46.49944" lon="6.73752"><ele></ele><time>2016-6-24T3:22:17Z</time></trkpt>
<trkpt lat="46.49946" lon="6.73737"><ele></ele><time>2016-6-24T3:22:20Z</time></trkpt>
<trkpt lat="46.49952" lon="6.73709"><ele></ele><time>2016-6-24T3:22:23Z</time></trkpt>
<trkpt lat="46.49959" lon="6.73685"><ele></ele><time>2016-6-24T3:22:26Z</time></trkpt>
<trkpt lat="46.49973" lon="6.73655"><ele></ele><time>2016-6-24T3:22:29Z</time></trkpt>
<trkpt lat="46.49978" lon="6.73647"><ele></ele><time>2016-6-24T3:22:32Z</time></trkpt>
<trkpt lat="46.49983" lon="6.7364"><ele></ele><time>2016-6-24T3:22:35Z</time></trkpt>
<trkpt lat="46.49996" lon="6.73625"><ele></ele><time>2016-6-24T3:22:38Z</time></trkpt>
<trkpt lat="46.50001" lon="6.7362"><ele></ele><time>2016-6-24T3:22:41Z</time></trkpt>
<trkpt lat="46.50001" lon="6.73617"><ele></ele><time>2016-6-24T3:22:44Z</time></trkpt>
<trkpt lat="46.49995" lon="6.73624"><ele></ele><time>2016-6-24T3:22:47Z</time></trkpt>
<trkpt lat="46.49981" lon="6.73643"><ele></ele><time>2016-6-24T3:22:50Z</time></trkpt>
<trkpt lat="46.49963" lon="6.7367"><ele></ele><time>2016-6-24T3:22:53Z</time></trkpt>
<trkpt lat="46.49956" lon="6.7368"><ele></ele><time>2016-6-24T3:22:56Z</time></trkpt>
<trkpt lat="46.49941" lon="6.73697"><ele></ele><time>2016-6-24T3:22:59Z</time></trkpt>
<trkpt lat="46.49926" lon="6.73716"><ele></ele><time>2016-6-24T3:23:2Z</time></trkpt>
<trkpt lat="46.49916" lon="6.73724"><ele></ele><time>2016-6-24T3:23:5Z</time></trkpt>
<trkpt lat="46.49895" lon="6.73735"><ele></ele><time>2016-6-24T3:23:8Z</time></trkpt>
<trkpt lat="46.49885" lon="6.73732"><ele></ele><time>2016-6-24T3:23:11Z</time></trkpt>
<trkpt lat="46.49866" lon="6.73731"><ele></ele><time>2016-6-24T3:23:14Z</time></trkpt>
<trkpt lat="46.49846" lon="6.73745"><ele></ele><time>2016-6-24T3:23:17Z</time></trkpt>
<trkpt lat="46.49838" lon="6.73756"><ele></ele><time>2016-6-24T3:23:20Z</time></trkpt>
<trkpt lat="46.49835" lon="6.73763"><ele></ele><time>2016-6-24T3:23:23Z</time></trkpt>
<trkpt lat="46.49831" lon="6.7377"><ele></ele><time>2016-6-24T3:23:26Z</time></trkpt>
<trkpt lat="46.49827" lon="6.73775"><ele></ele><time>2016-6-24T3:23:29Z</time></trkpt>
<trkpt lat="46.49824" lon="6.7378"><ele></ele><time>2016-6-24T3:23:32Z</time></trkpt>
<trkpt lat="46.49816" lon="6.73794"><ele></ele><time>2016-6-24T3:23:35Z</time></trkpt>
<trkpt lat="46.49805" lon="6.73818"><ele></ele><time>2016-6-24T3:23:38Z</time></trkpt>
<trkpt lat="46.49794" lon="6.7384"><ele></ele><time>2016-6-24T3:23:41Z</time></trkpt>
<trkpt lat="46.49783" lon="6.73867"><ele></ele><time>2016-6-24T3:23:44Z</time></trkpt>
<trkpt lat="46.49773" lon="6.73892"><ele></ele><time>2016-6-24T3:23:47Z</time></trkpt>
<trkpt lat="46.49763" lon="6.7392"><ele></ele><time>2016-6-24T3:23:50Z</time></trkpt>
<trkpt lat="46.49755" lon="6.73938"><ele></ele><time>2016-6-24T3:23:53Z</time></trkpt>
<trkpt lat="46.49748" lon="6.73965"><ele></ele><time>2016-6-24T3:23:56Z</time></trkpt>
<trkpt lat="46.49744" lon="6.73979"><ele></ele><time>2016-6-24T3:23:59Z</time></trkpt>
<trkpt lat="46.49737" lon="6.74004"><ele></ele><time>2016-6-24T3:24:2Z</time></trkpt>
<trkpt lat="46.4973" lon="6.74032"><ele></ele><time>2016-6-24T3:24:5Z</time></trkpt>
<trkpt lat="46.49728" lon="6.74075"><ele></ele><time>2016-6-24T3:24:8Z</time></trkpt>
<trkpt lat="46.49727" lon="6.74082"><ele></ele><time>2016-6-24T3:24:11Z</time></trkpt>
<trkpt lat="46.4971" lon="6.74095"><ele></ele><time>2016-6-24T3:24:14Z</time></trkpt>
<trkpt lat="46.49693" lon="6.74092"><ele></ele><time>2016-6-24T3:24:17Z</time></trkpt>
<trkpt lat="46.49676" lon="6.74116"><ele></ele><time>2016-6-24T3:24:20Z</time></trkpt>
<trkpt lat="46.49672" lon="6.74125"><ele></ele><time>2016-6-24T3:24:23Z</time></trkpt>
<trkpt lat="46.49661" lon="6.74155"><ele></ele><time>2016-6-24T3:24:26Z</time></trkpt>
<trkpt lat="46.49655" lon="6.74165"><ele></ele><time>2016-6-24T3:24:29Z</time></trkpt>
<trkpt lat="46.49644" lon="6.74185"><ele></ele><time>2016-6-24T3:24:32Z</time></trkpt>
<trkpt lat="46.49632" lon="6.74207"><ele></ele><time>2016-6-24T3:24:35Z</time></trkpt>
<trkpt lat="46.49625" lon="6.74217"><ele></ele><time>2016-6-24T3:24:38Z</time></trkpt>
<trkpt lat="46.49609" lon="6.74232"><ele></ele><time>2016-6-24T3:24:41Z</time></trkpt>
<trkpt lat="46.49593" lon="6.74248"><ele></ele><time>2016-6-24T3:24:44Z</time></trkpt>
<trkpt lat="46.49578" lon="6.74267"><ele></ele><time>2016-6-24T3:24:47Z</time></trkpt>
<trkpt lat="46.4957" lon="6.74276"><ele></ele><time>2016-6-24T3:24:50Z</time></trkpt>
<trkpt lat="46.49549" lon="6.74285"><ele></ele><time>2016-6-24T3:24:53Z</time></trkpt>
<trkpt lat="46.49533" lon="6.74297"><ele></ele><time>2016-6-24T3:24:56Z</time></trkpt>
<trkpt lat="46.4954" lon="6.74316"><ele></ele><time>2016-6-24T3:24:59Z</time></trkpt>
<trkpt lat="46.49554" lon="6.74334"><ele></ele><time>2016-6-24T3:25:2Z</time></trkpt>
<trkpt lat="46.49566" lon="6.74347"><ele></ele><time>2016-6-24T3:25:5Z</time></trkpt>
<trkpt lat="46.49567" lon="6.7435"><ele></ele><time>2016-6-24T3:25:8Z</time></trkpt>
<trkpt lat="46.49571" lon="6.74356"><ele></ele><time>2016-6-24T3:25:11Z</time></trkpt>
<trkpt lat="46.49571" lon="6.74357"><ele></ele><time>2016-6-24T3:25:14Z</time></trkpt>
<trkpt lat="46.49569" lon="6.74381"><ele></ele><time>2016-6-24T3:25:17Z</time></trkpt>
<trkpt lat="46.49562" lon="6.74403"><ele></ele><time>2016-6-24T3:25:20Z</time></trkpt>
<trkpt lat="46.49559" lon="6.74408"><ele></ele><time>2016-6-24T3:25:23Z</time></trkpt>
<trkpt lat="46.49552" lon="6.74425"><ele></ele><time>2016-6-24T3:25:26Z</time></trkpt>
<trkpt lat="46.49546" lon="6.7445"><ele></ele><time>2016-6-24T3:25:29Z</time></trkpt>
<trkpt lat="46.49544" lon="6.74476"><ele></ele><time>2016-6-24T3:25:32Z</time></trkpt>
<trkpt lat="46.49546" lon="6.74492"><ele></ele><time>2016-6-24T3:25:35Z</time></trkpt>
<trkpt lat="46.49562" lon="6.74509"><ele></ele><time>2016-6-24T3:25:38Z</time></trkpt>
<trkpt lat="46.49581" lon="6.74528"><ele></ele><time>2016-6-24T3:25:41Z</time></trkpt>
<trkpt lat="46.49586" lon="6.74531"><ele></ele><time>2016-6-24T3:25:44Z</time></trkpt>
<trkpt lat="46.49594" lon="6.74542"><ele></ele><time>2016-6-24T3:25:47Z</time></trkpt>
<trkpt lat="46.4961" lon="6.74547"><ele></ele><time>2016-6-24T3:25:50Z</time></trkpt>
<trkpt lat="46.49611" lon="6.74545"><ele></ele><time>2016-6-24T3:25:53Z</time></trkpt>
<trkpt lat="46.49613" lon="6.7455"><ele></ele><time>2016-6-24T3:25:56Z</time></trkpt>
<trkpt lat="46.49611" lon="6.74557"><ele></ele><time>2016-6-24T3:25:59Z</time></trkpt>
<trkpt lat="46.49621" lon="6.74571"><ele></ele><time>2016-6-24T3:26:2Z</time></trkpt>
<trkpt lat="46.49632" lon="6.7459"><ele></ele><time>2016-6-24T3:26:5Z</time></trkpt>
<trkpt lat="46.49634" lon="6.74611"><ele></ele><time>2016-6-24T3:26:8Z</time></trkpt>
<trkpt lat="46.49636" lon="6.74637"><ele></ele><time>2016-6-24T3:26:11Z</time></trkpt>
<trkpt lat="46.49636" lon="6.7465"><ele></ele><time>2016-6-24T3:26:14Z</time></trkpt>
<trkpt lat="46.49635" lon="6.74673"><ele></ele><time>2016-6-24T3:26:17Z</time></trkpt>
<trkpt lat="46.49627" lon="6.7469"><ele></ele><time>2016-6-24T3:26:20Z</time></trkpt>
<trkpt lat="46.49616" lon="6.74716"><ele></ele><time>2016-6-24T3:26:23Z</time></trkpt>
<trkpt lat="46.49606" lon="6.74741"><ele></ele><time>2016-6-24T3:26:26Z</time></trkpt>
<trkpt lat="46.49595" lon="6.74761"><ele></ele><time>2016-6-24T3:26:29Z</time></trkpt>
<trkpt lat="46.49587" lon="6.74774"><ele></ele><time>2016-6-24T3:26:32Z</time></trkpt>
<trkpt lat="46.49574" lon="6.74796"><ele></ele><time>2016-6-24T3:26:35Z</time></trkpt>
<trkpt lat="46.49566" lon="6.7481"><ele></ele><time>2016-6-24T3:26:38Z</time></trkpt>
<trkpt lat="46.49556" lon="6.74828"><ele></ele><time>2016-6-24T3:26:41Z</time></trkpt>
<trkpt lat="46.49543" lon="6.74849"><ele></ele><time>2016-6-24T3:26:44Z</time></trkpt>
<trkpt lat="46.49527" lon="6.74873"><ele></ele><time>2016-6-24T3:26:47Z</time></trkpt>
<trkpt lat="46.49513" lon="6.74893"><ele></ele><time>2016-6-24T3:26:50Z</time></trkpt>
<trkpt lat="46.49496" lon="6.74914"><ele></ele><time>2016-6-24T3:26:53Z</time></trkpt>
<trkpt lat="46.4948" lon="6.74931"><ele></ele><time>2016-6-24T3:26:56Z</time></trkpt>
<trkpt lat="46.49462" lon="6.74949"><ele></ele><time>2016-6-24T3:26:59Z</time></trkpt>
<trkpt lat="46.49454" lon="6.74959"><ele></ele><time>2016-6-24T3:27:2Z</time></trkpt>
<trkpt lat="46.49453" lon="6.74962"><ele></ele><time>2016-6-24T3:27:5Z</time></trkpt>
<trkpt lat="46.49445" lon="6.74971"><ele></ele><time>2016-6-24T3:27:8Z</time></trkpt>
<trkpt lat="46.49439" lon="6.7498"><ele></ele><time>2016-6-24T3:27:11Z</time></trkpt>
<trkpt lat="46.49436" lon="6.74984"><ele></ele><time>2016-6-24T3:27:14Z</time></trkpt>
<trkpt lat="46.49428" lon="6.74995"><ele></ele><time>2016-6-24T3:27:17Z</time></trkpt>
<trkpt lat="46.49415" lon="6.75014"><ele></ele><time>2016-6-24T3:27:20Z</time></trkpt>
<trkpt lat="46.49403" lon="6.75034"><ele></ele><time>2016-6-24T3:27:23Z</time></trkpt>
<trkpt lat="46.49391" lon="6.75055"><ele></ele><time>2016-6-24T3:27:26Z</time></trkpt>
<trkpt lat="46.4938" lon="6.75075"><ele></ele><time>2016-6-24T3:27:29Z</time></trkpt>
<trkpt lat="46.49366" lon="6.75097"><ele></ele><time>2016-6-24T3:27:32Z</time></trkpt>
<trkpt lat="46.49362" lon="6.75103"><ele></ele><time>2016-6-24T3:27:35Z</time></trkpt>
<trkpt lat="46.4935" lon="6.75127"><ele></ele><time>2016-6-24T3:27:38Z</time></trkpt>
<trkpt lat="46.4934" lon="6.75148"><ele></ele><time>2016-6-24T3:27:41Z</time></trkpt>
<trkpt lat="46.49328" lon="6.75171"><ele></ele><time>2016-6-24T3:27:44Z</time></trkpt>
<trkpt lat="46.4932" lon="6.75186"><ele></ele><time>2016-6-24T3:27:47Z</time></trkpt>
<trkpt lat="46.49311" lon="6.75203"><ele></ele><time>2016-6-24T3:27:50Z</time></trkpt>
<trkpt lat="46.49296" lon="6.75227"><ele></ele><time>2016-6-24T3:27:53Z</time></trkpt>
<trkpt lat="46.49281" lon="6.7525"><ele></ele><time>2016-6-24T3:27:56Z</time></trkpt>
<trkpt lat="46.49274" lon="6.75262"><ele></ele><time>2016-6-24T3:27:59Z</time></trkpt>
<trkpt lat="46.49267" lon="6.75274"><ele></ele><time>2016-6-24T3:28:2Z</time></trkpt>
<trkpt lat="46.49258" lon="6.75285"><ele></ele><time>2016-6-24T3:28:5Z</time></trkpt>
<trkpt lat="46.49242" lon="6.75299"><ele></ele><time>2016-6-24T3:28:8Z</time></trkpt>
<trkpt lat="46.49225" lon="6.75318"><ele></ele><time>2016-6-24T3:28:11Z</time></trkpt>
<trkpt lat="46.49208" lon="6.75335"><ele></ele><time>2016-6-24T3:28:14Z</time></trkpt>
<trkpt lat="46.4919" lon="6.7535"><ele></ele><time>2016-6-24T3:28:17Z</time></trkpt>
<trkpt lat="46.49172" lon="6.75356"><ele></ele><time>2016-6-24T3:28:20Z</time></trkpt>
<trkpt lat="46.49151" lon="6.75361"><ele></ele><time>2016-6-24T3:28:23Z</time></trkpt>
<trkpt lat="46.49149" lon="6.75362"><ele></ele><time>2016-6-24T3:28:26Z</time></trkpt>
<trkpt lat="46.49143" lon="6.75368"><ele></ele><time>2016-6-24T3:28:29Z</time></trkpt>
<trkpt lat="46.49141" lon="6.7537"><ele></ele><time>2016-6-24T3:28:32Z</time></trkpt>
<trkpt lat="46.49138" lon="6.75372"><ele></ele><time>2016-6-24T3:28:35Z</time></trkpt>
<trkpt lat="46.49137" lon="6.75374"><ele></ele><time>2016-6-24T3:28:38Z</time></trkpt>
<trkpt lat="46.4913" lon="6.75377"><ele></ele><time>2016-6-24T3:28:41Z</time></trkpt>
<trkpt lat="46.49112" lon="6.75386"><ele></ele><time>2016-6-24T3:28:44Z</time></trkpt>
<trkpt lat="46.49106" lon="6.7539"><ele></ele><time>2016-6-24T3:28:47Z</time></trkpt>
<trkpt lat="46.49101" lon="6.75393"><ele></ele><time>2016-6-24T3:28:50Z</time></trkpt>
<trkpt lat="46.49089" lon="6.75402"><ele></ele><time>2016-6-24T3:28:53Z</time></trkpt>
<trkpt lat="46.49085" lon="6.75409"><ele></ele><time>2016-6-24T3:28:56Z</time></trkpt>
<trkpt lat="46.49074" lon="6.75431"><ele></ele><time>2016-6-24T3:28:59Z</time></trkpt>
<trkpt lat="46.49072" lon="6.75434"><ele></ele><time>2016-6-24T3:29:2Z</time></trkpt>
<trkpt lat="46.49068" lon="6.75448"><ele></ele><time>2016-6-24T3:29:5Z</time></trkpt>
<trkpt lat="46.49067" lon="6.75452"><ele></ele><time>2016-6-24T3:29:8Z</time></trkpt>
<trkpt lat="46.49056" lon="6.75478"><ele></ele><time>2016-6-24T3:29:11Z</time></trkpt>
<trkpt lat="46.49055" lon="6.75484"><ele></ele><time>2016-6-24T3:29:14Z</time></trkpt>
<trkpt lat="46.49047" lon="6.75509"><ele></ele><time>2016-6-24T3:29:17Z</time></trkpt>
<trkpt lat="46.49044" lon="6.75523"><ele></ele><time>2016-6-24T3:29:20Z</time></trkpt>
<trkpt lat="46.49041" lon="6.7553"><ele></ele><time>2016-6-24T3:29:23Z</time></trkpt>
<trkpt lat="46.4904" lon="6.75539"><ele></ele><time>2016-6-24T3:29:26Z</time></trkpt>
<trkpt lat="46.49037" lon="6.75541"><ele></ele><time>2016-6-24T3:29:29Z</time></trkpt>
<trkpt lat="46.49035" lon="6.75549"><ele></ele><time>2016-6-24T3:29:32Z</time></trkpt>
<trkpt lat="46.49036" lon="6.75551"><ele></ele><time>2016-6-24T3:29:35Z</time></trkpt>
<trkpt lat="46.49035" lon="6.75561"><ele></ele><time>2016-6-24T3:29:38Z</time></trkpt>
<trkpt lat="46.49032" lon="6.75578"><ele></ele><time>2016-6-24T3:29:41Z</time></trkpt>
<trkpt lat="46.4903" lon="6.75585"><ele></ele><time>2016-6-24T3:29:44Z</time></trkpt>
<trkpt lat="46.49028" lon="6.75593"><ele></ele><time>2016-6-24T3:29:47Z</time></trkpt>
<trkpt lat="46.4903" lon="6.75597"><ele></ele><time>2016-6-24T3:29:50Z</time></trkpt>
<trkpt lat="46.49031" lon="6.75605"><ele></ele><time>2016-6-24T3:29:53Z</time></trkpt>
<trkpt lat="46.49029" lon="6.75611"><ele></ele><time>2016-6-24T3:29:56Z</time></trkpt>
<trkpt lat="46.49028" lon="6.75635"><ele></ele><time>2016-6-24T3:29:59Z</time></trkpt>
<trkpt lat="46.49024" lon="6.75652"><ele></ele><time>2016-6-24T3:30:2Z</time></trkpt>
<trkpt lat="46.49019" lon="6.75678"><ele></ele><time>2016-6-24T3:30:5Z</time></trkpt>
<trkpt lat="46.49018" lon="6.7568"><ele></ele><time>2016-6-24T3:30:8Z</time></trkpt>
<trkpt lat="46.49006" lon="6.75701"><ele></ele><time>2016-6-24T3:30:11Z</time></trkpt>
<trkpt lat="46.49003" lon="6.75719"><ele></ele><time>2016-6-24T3:30:14Z</time></trkpt>
<trkpt lat="46.49002" lon="6.75724"><ele></ele><time>2016-6-24T3:30:17Z</time></trkpt>
<trkpt lat="46.49" lon="6.75741"><ele></ele><time>2016-6-24T3:30:20Z</time></trkpt>
<trkpt lat="46.49004" lon="6.7576"><ele></ele><time>2016-6-24T3:30:23Z</time></trkpt>
<trkpt lat="46.49011" lon="6.75784"><ele></ele><time>2016-6-24T3:30:26Z</time></trkpt>
<trkpt lat="46.49013" lon="6.75794"><ele></ele><time>2016-6-24T3:30:29Z</time></trkpt>
<trkpt lat="46.49015" lon="6.75793"><ele></ele><time>2016-6-24T3:30:32Z</time></trkpt>
<trkpt lat="46.4902" lon="6.75807"><ele></ele><time>2016-6-24T3:30:35Z</time></trkpt>
<trkpt lat="46.4903" lon="6.75829"><ele></ele><time>2016-6-24T3:30:38Z</time></trkpt>
<trkpt lat="46.49039" lon="6.75852"><ele></ele><time>2016-6-24T3:30:41Z</time></trkpt>
<trkpt lat="46.4905" lon="6.75875"><ele></ele><time>2016-6-24T3:30:44Z</time></trkpt>
<trkpt lat="46.49058" lon="6.75889"><ele></ele><time>2016-6-24T3:30:47Z</time></trkpt>
<trkpt lat="46.49074" lon="6.75909"><ele></ele><time>2016-6-24T3:30:50Z</time></trkpt>
<trkpt lat="46.49091" lon="6.75928"><ele></ele><time>2016-6-24T3:30:53Z</time></trkpt>
<trkpt lat="46.49105" lon="6.75944"><ele></ele><time>2016-6-24T3:30:56Z</time></trkpt>
<trkpt lat="46.49119" lon="6.75963"><ele></ele><time>2016-6-24T3:30:59Z</time></trkpt>
<trkpt lat="46.49141" lon="6.75986"><ele></ele><time>2016-6-24T3:31:2Z</time></trkpt>
<trkpt lat="46.49154" lon="6.75987"><ele></ele><time>2016-6-24T3:31:5Z</time></trkpt>
<trkpt lat="46.49155" lon="6.75989"><ele></ele><time>2016-6-24T3:31:8Z</time></trkpt>
<trkpt lat="46.49156" lon="6.7599"><ele></ele><time>2016-6-24T3:31:11Z</time></trkpt>
<trkpt lat="46.49159" lon="6.75994"><ele></ele><time>2016-6-24T3:31:14Z</time></trkpt>
<trkpt lat="46.4916" lon="6.75997"><ele></ele><time>2016-6-24T3:31:17Z</time></trkpt>
<trkpt lat="46.49163" lon="6.76001"><ele></ele><time>2016-6-24T3:31:20Z</time></trkpt>
<trkpt lat="46.49166" lon="6.76005"><ele></ele><time>2016-6-24T3:31:23Z</time></trkpt>
<trkpt lat="46.49166" lon="6.7601"><ele></ele><time>2016-6-24T3:31:26Z</time></trkpt>
<trkpt lat="46.49167" lon="6.76013"><ele></ele><time>2016-6-24T3:31:29Z</time></trkpt>
<trkpt lat="46.49174" lon="6.76029"><ele></ele><time>2016-6-24T3:31:32Z</time></trkpt>
<trkpt lat="46.49177" lon="6.76033"><ele></ele><time>2016-6-24T3:31:35Z</time></trkpt>
<trkpt lat="46.49184" lon="6.76044"><ele></ele><time>2016-6-24T3:31:38Z</time></trkpt>
<trkpt lat="46.49189" lon="6.7605"><ele></ele><time>2016-6-24T3:31:41Z</time></trkpt>
<trkpt lat="46.49198" lon="6.76054"><ele></ele><time>2016-6-24T3:31:44Z</time></trkpt>
<trkpt lat="46.49213" lon="6.7605"><ele></ele><time>2016-6-24T3:31:47Z</time></trkpt>
<trkpt lat="46.49229" lon="6.76051"><ele></ele><time>2016-6-24T3:31:50Z</time></trkpt>
<trkpt lat="46.49248" lon="6.76055"><ele></ele><time>2016-6-24T3:31:53Z</time></trkpt>
<trkpt lat="46.49278" lon="6.76055"><ele></ele><time>2016-6-24T3:31:56Z</time></trkpt>
<trkpt lat="46.49295" lon="6.76042"><ele></ele><time>2016-6-24T3:31:59Z</time></trkpt>
<trkpt lat="46.4931" lon="6.76022"><ele></ele><time>2016-6-24T3:32:2Z</time></trkpt>
<trkpt lat="46.49325" lon="6.76007"><ele></ele><time>2016-6-24T3:32:5Z</time></trkpt>
<trkpt lat="46.49344" lon="6.76005"><ele></ele><time>2016-6-24T3:32:8Z</time></trkpt>
<trkpt lat="46.49363" lon="6.76008"><ele></ele><time>2016-6-24T3:32:11Z</time></trkpt>
<trkpt lat="46.49388" lon="6.76014"><ele></ele><time>2016-6-24T3:32:14Z</time></trkpt>
<trkpt lat="46.49409" lon="6.76011"><ele></ele><time>2016-6-24T3:32:17Z</time></trkpt>
<trkpt lat="46.4943" lon="6.76009"><ele></ele><time>2016-6-24T3:32:20Z</time></trkpt>
<trkpt lat="46.49449" lon="6.76012"><ele></ele><time>2016-6-24T3:32:23Z</time></trkpt>
<trkpt lat="46.49467" lon="6.76014"><ele></ele><time>2016-6-24T3:32:26Z</time></trkpt>
<trkpt lat="46.49489" lon="6.76015"><ele></ele><time>2016-6-24T3:32:29Z</time></trkpt>
<trkpt lat="46.49527" lon="6.76025"><ele></ele><time>2016-6-24T3:32:32Z</time></trkpt>
<trkpt lat="46.49545" lon="6.76031"><ele></ele><time>2016-6-24T3:32:35Z</time></trkpt>
<trkpt lat="46.49563" lon="6.76037"><ele></ele><time>2016-6-24T3:32:38Z</time></trkpt>
<trkpt lat="46.49577" lon="6.76041"><ele></ele><time>2016-6-24T3:32:41Z</time></trkpt>
<trkpt lat="46.49595" lon="6.76045"><ele></ele><time>2016-6-24T3:32:44Z</time></trkpt>
<trkpt lat="46.49618" lon="6.76051"><ele></ele><time>2016-6-24T3:32:47Z</time></trkpt>
<trkpt lat="46.49635" lon="6.76062"><ele></ele><time>2016-6-24T3:32:50Z</time></trkpt>
<trkpt lat="46.49652" lon="6.76077"><ele></ele><time>2016-6-24T3:32:53Z</time></trkpt>
<trkpt lat="46.49665" lon="6.76096"><ele></ele><time>2016-6-24T3:32:56Z</time></trkpt>
<trkpt lat="46.49678" lon="6.76117"><ele></ele><time>2016-6-24T3:32:59Z</time></trkpt>
<trkpt lat="46.49691" lon="6.76136"><ele></ele><time>2016-6-24T3:33:2Z</time></trkpt>
<trkpt lat="46.49699" lon="6.76149"><ele></ele><time>2016-6-24T3:33:5Z</time></trkpt>
<trkpt lat="46.49718" lon="6.76159"><ele></ele><time>2016-6-24T3:33:8Z</time></trkpt>
<trkpt lat="46.49735" lon="6.76147"><ele></ele><time>2016-6-24T3:33:11Z</time></trkpt>
<trkpt lat="46.4974" lon="6.76142"><ele></ele><time>2016-6-24T3:33:14Z</time></trkpt>
<trkpt lat="46.49752" lon="6.76127"><ele></ele><time>2016-6-24T3:33:17Z</time></trkpt>
<trkpt lat="46.49755" lon="6.76123"><ele></ele><time>2016-6-24T3:33:20Z</time></trkpt>
<trkpt lat="46.49758" lon="6.76118"><ele></ele><time>2016-6-24T3:33:23Z</time></trkpt>
<trkpt lat="46.49768" lon="6.761"><ele></ele><time>2016-6-24T3:33:26Z</time></trkpt>
<trkpt lat="46.49771" lon="6.76093"><ele></ele><time>2016-6-24T3:33:29Z</time></trkpt>
<trkpt lat="46.49779" lon="6.7608"><ele></ele><time>2016-6-24T3:33:32Z</time></trkpt>
<trkpt lat="46.49784" lon="6.76072"><ele></ele><time>2016-6-24T3:33:35Z</time></trkpt>
<trkpt lat="46.49796" lon="6.76051"><ele></ele><time>2016-6-24T3:33:38Z</time></trkpt>
<trkpt lat="46.49813" lon="6.76035"><ele></ele><time>2016-6-24T3:33:41Z</time></trkpt>
<trkpt lat="46.49836" lon="6.76025"><ele></ele><time>2016-6-24T3:33:44Z</time></trkpt>
<trkpt lat="46.49854" lon="6.76021"><ele></ele><time>2016-6-24T3:33:47Z</time></trkpt>
<trkpt lat="46.49872" lon="6.7602"><ele></ele><time>2016-6-24T3:33:50Z</time></trkpt>
<trkpt lat="46.49889" lon="6.76015"><ele></ele><time>2016-6-24T3:33:53Z</time></trkpt>
<trkpt lat="46.49906" lon="6.76006"><ele></ele><time>2016-6-24T3:33:56Z</time></trkpt>
<trkpt lat="46.49922" lon="6.75992"><ele></ele><time>2016-6-24T3:33:59Z</time></trkpt>
<trkpt lat="46.49939" lon="6.75972"><ele></ele><time>2016-6-24T3:34:2Z</time></trkpt>
<trkpt lat="46.49963" lon="6.75945"><ele></ele><time>2016-6-24T3:34:5Z</time></trkpt>
<trkpt lat="46.4998" lon="6.75935"><ele></ele><time>2016-6-24T3:34:8Z</time></trkpt>
<trkpt lat="46.49989" lon="6.75924"><ele></ele><time>2016-6-24T3:34:11Z</time></trkpt>
<trkpt lat="46.50005" lon="6.75906"><ele></ele><time>2016-6-24T3:34:14Z</time></trkpt>
<trkpt lat="46.50019" lon="6.7589"><ele></ele><time>2016-6-24T3:34:17Z</time></trkpt>
<trkpt lat="46.50025" lon="6.7588"><ele></ele><time>2016-6-24T3:34:20Z</time></trkpt>
<trkpt lat="46.50033" lon="6.75871"><ele></ele><time>2016-6-24T3:34:23Z</time></trkpt>
<trkpt lat="46.5005" lon="6.75856"><ele></ele><time>2016-6-24T3:34:26Z</time></trkpt>
<trkpt lat="46.50061" lon="6.75841"><ele></ele><time>2016-6-24T3:34:29Z</time></trkpt>
<trkpt lat="46.50066" lon="6.75828"><ele></ele><time>2016-6-24T3:34:32Z</time></trkpt>
<trkpt lat="46.50066" lon="6.75819"><ele></ele><time>2016-6-24T3:34:35Z</time></trkpt>
<trkpt lat="46.5006" lon="6.75806"><ele></ele><time>2016-6-24T3:34:38Z</time></trkpt>
<trkpt lat="46.50054" lon="6.75801"><ele></ele><time>2016-6-24T3:34:41Z</time></trkpt>
<trkpt lat="46.5003" lon="6.75785"><ele></ele><time>2016-6-24T3:34:44Z</time></trkpt>
<trkpt lat="46.50013" lon="6.75775"><ele></ele><time>2016-6-24T3:34:47Z</time></trkpt>
<trkpt lat="46.50008" lon="6.7577"><ele></ele><time>2016-6-24T3:34:50Z</time></trkpt>
<trkpt lat="46.5" lon="6.75757"><ele></ele><time>2016-6-24T3:34:53Z</time></trkpt>
<trkpt lat="46.49994" lon="6.75743"><ele></ele><time>2016-6-24T3:34:56Z</time></trkpt>
<trkpt lat="46.4999" lon="6.75733"><ele></ele><time>2016-6-24T3:34:59Z</time></trkpt>
<trkpt lat="46.49984" lon="6.75715"><ele></ele><time>2016-6-24T3:35:2Z</time></trkpt>
<trkpt lat="46.49976" lon="6.75691"><ele></ele><time>2016-6-24T3:35:5Z</time></trkpt>
<trkpt lat="46.49973" lon="6.75681"><ele></ele><time>2016-6-24T3:35:8Z</time></trkpt>
<trkpt lat="46.49972" lon="6.75671"><ele></ele><time>2016-6-24T3:35:11Z</time></trkpt>
<trkpt lat="46.4997" lon="6.75664"><ele></ele><time>2016-6-24T3:35:14Z</time></trkpt>
<trkpt lat="46.49959" lon="6.75638"><ele></ele><time>2016-6-24T3:35:17Z</time></trkpt>
<trkpt lat="46.49954" lon="6.75623"><ele></ele><time>2016-6-24T3:35:20Z</time></trkpt>
<trkpt lat="46.49953" lon="6.75621"><ele></ele><time>2016-6-24T3:35:23Z</time></trkpt>
<trkpt lat="46.49944" lon="6.75596"><ele></ele><time>2016-6-24T3:35:26Z</time></trkpt>
<trkpt lat="46.49952" lon="6.75575"><ele></ele><time>2016-6-24T3:35:29Z</time></trkpt>
<trkpt lat="46.49975" lon="6.75573"><ele></ele><time>2016-6-24T3:35:32Z</time></trkpt>
<trkpt lat="46.49993" lon="6.75581"><ele></ele><time>2016-6-24T3:35:35Z</time></trkpt>
<trkpt lat="46.50009" lon="6.75593"><ele></ele><time>2016-6-24T3:35:38Z</time></trkpt>
<trkpt lat="46.50025" lon="6.75605"><ele></ele><time>2016-6-24T3:35:41Z</time></trkpt>
<trkpt lat="46.50047" lon="6.75615"><ele></ele><time>2016-6-24T3:35:44Z</time></trkpt>
<trkpt lat="46.50062" lon="6.75604"><ele></ele><time>2016-6-24T3:35:47Z</time></trkpt>
<trkpt lat="46.50065" lon="6.75578"><ele></ele><time>2016-6-24T3:35:50Z</time></trkpt>
<trkpt lat="46.50059" lon="6.75554"><ele></ele><time>2016-6-24T3:35:53Z</time></trkpt>
<trkpt lat="46.50052" lon="6.7553"><ele></ele><time>2016-6-24T3:35:56Z</time></trkpt>
<trkpt lat="46.50043" lon="6.755"><ele></ele><time>2016-6-24T3:35:59Z</time></trkpt>
<trkpt lat="46.50038" lon="6.75481"><ele></ele><time>2016-6-24T3:36:2Z</time></trkpt>
<trkpt lat="46.50032" lon="6.75455"><ele></ele><time>2016-6-24T3:36:5Z</time></trkpt>
<trkpt lat="46.50026" lon="6.7543"><ele></ele><time>2016-6-24T3:36:8Z</time></trkpt>
<trkpt lat="46.50017" lon="6.754"><ele></ele><time>2016-6-24T3:36:11Z</time></trkpt>
<trkpt lat="46.5001" lon="6.75375"><ele></ele><time>2016-6-24T3:36:14Z</time></trkpt>
<trkpt lat="46.50002" lon="6.75352"><ele></ele><time>2016-6-24T3:36:17Z</time></trkpt>
<trkpt lat="46.50004" lon="6.75341"><ele></ele><time>2016-6-24T3:36:20Z</time></trkpt>
<trkpt lat="46.50009" lon="6.75322"><ele></ele><time>2016-6-24T3:36:23Z</time></trkpt>
<trkpt lat="46.50018" lon="6.75297"><ele></ele><time>2016-6-24T3:36:26Z</time></trkpt>
<trkpt lat="46.5003" lon="6.75276"><ele></ele><time>2016-6-24T3:36:29Z</time></trkpt>
<trkpt lat="46.50042" lon="6.75263"><ele></ele><time>2016-6-24T3:36:32Z</time></trkpt>
<trkpt lat="46.50058" lon="6.75242"><ele></ele><time>2016-6-24T3:36:35Z</time></trkpt>
<trkpt lat="46.50066" lon="6.75216"><ele></ele><time>2016-6-24T3:36:38Z</time></trkpt>
<trkpt lat="46.50062" lon="6.75187"><ele></ele><time>2016-6-24T3:36:41Z</time></trkpt>
<trkpt lat="46.5006" lon="6.7518"><ele></ele><time>2016-6-24T3:36:44Z</time></trkpt>
<trkpt lat="46.50059" lon="6.75174"><ele></ele><time>2016-6-24T3:36:47Z</time></trkpt>
<trkpt lat="46.50058" lon="6.75167"><ele></ele><time>2016-6-24T3:36:50Z</time></trkpt>
<trkpt lat="46.50056" lon="6.75155"><ele></ele><time>2016-6-24T3:36:53Z</time></trkpt>
<trkpt lat="46.50055" lon="6.7515"><ele></ele><time>2016-6-24T3:36:56Z</time></trkpt>
<trkpt lat="46.50054" lon="6.75139"><ele></ele><time>2016-6-24T3:36:59Z</time></trkpt>
<trkpt lat="46.50057" lon="6.75116"><ele></ele><time>2016-6-24T3:37:2Z</time></trkpt>
<trkpt lat="46.50059" lon="6.75113"><ele></ele><time>2016-6-24T3:37:5Z</time></trkpt>
<trkpt lat="46.5006" lon="6.7511"><ele></ele><time>2016-6-24T3:37:8Z</time></trkpt>
<trkpt lat="46.50075" lon="6.75098"><ele></ele><time>2016-6-24T3:37:11Z</time></trkpt>
<trkpt lat="46.50092" lon="6.75085"><ele></ele><time>2016-6-24T3:37:14Z</time></trkpt>
<trkpt lat="46.50106" lon="6.75071"><ele></ele><time>2016-6-24T3:37:17Z</time></trkpt>
<trkpt lat="46.50122" lon="6.75052"><ele></ele><time>2016-6-24T3:37:20Z</time></trkpt>
<trkpt lat="46.50146" lon="6.7502"><ele></ele><time>2016-6-24T3:37:23Z</time></trkpt>
<trkpt lat="46.50158" lon="6.75008"><ele></ele><time>2016-6-24T3:37:26Z</time></trkpt>
<trkpt lat="46.50159" lon="6.75007"><ele></ele><time>2016-6-24T3:37:29Z</time></trkpt>
<trkpt lat="46.50175" lon="6.74989"><ele></ele><time>2016-6-24T3:37:32Z</time></trkpt>
<trkpt lat="46.50184" lon="6.7498"><ele></ele><time>2016-6-24T3:37:35Z</time></trkpt>
<trkpt lat="46.50198" lon="6.74963"><ele></ele><time>2016-6-24T3:37:38Z</time></trkpt>
<trkpt lat="46.50214" lon="6.74941"><ele></ele><time>2016-6-24T3:37:41Z</time></trkpt>
<trkpt lat="46.50224" lon="6.74933"><ele></ele><time>2016-6-24T3:37:44Z</time></trkpt>
<trkpt lat="46.5024" lon="6.74921"><ele></ele><time>2016-6-24T3:37:47Z</time></trkpt>
<trkpt lat="46.50256" lon="6.74906"><ele></ele><time>2016-6-24T3:37:50Z</time></trkpt>
<trkpt lat="46.50272" lon="6.74887"><ele></ele><time>2016-6-24T3:37:53Z</time></trkpt>
<trkpt lat="46.50296" lon="6.74861"><ele></ele><time>2016-6-24T3:37:56Z</time></trkpt>
<trkpt lat="46.50303" lon="6.74853"><ele></ele><time>2016-6-24T3:37:59Z</time></trkpt>
<trkpt lat="46.50311" lon="6.74845"><ele></ele><time>2016-6-24T3:38:2Z</time></trkpt>
<trkpt lat="46.50327" lon="6.74832"><ele></ele><time>2016-6-24T3:38:5Z</time></trkpt>
<trkpt lat="46.50345" lon="6.74824"><ele></ele><time>2016-6-24T3:38:8Z</time></trkpt>
<trkpt lat="46.50365" lon="6.74827"><ele></ele><time>2016-6-24T3:38:11Z</time></trkpt>
<trkpt lat="46.50384" lon="6.74836"><ele></ele><time>2016-6-24T3:38:14Z</time></trkpt>
<trkpt lat="46.50403" lon="6.74843"><ele></ele><time>2016-6-24T3:38:17Z</time></trkpt>
<trkpt lat="46.50419" lon="6.7486"><ele></ele><time>2016-6-24T3:38:20Z</time></trkpt>
<trkpt lat="46.50436" lon="6.74882"><ele></ele><time>2016-6-24T3:38:23Z</time></trkpt>
<trkpt lat="46.50451" lon="6.74902"><ele></ele><time>2016-6-24T3:38:26Z</time></trkpt>
<trkpt lat="46.50465" lon="6.74923"><ele></ele><time>2016-6-24T3:38:29Z</time></trkpt>
<trkpt lat="46.50477" lon="6.74942"><ele></ele><time>2016-6-24T3:38:32Z</time></trkpt>
<trkpt lat="46.50492" lon="6.74964"><ele></ele><time>2016-6-24T3:38:35Z</time></trkpt>
<trkpt lat="46.50506" lon="6.74985"><ele></ele><time>2016-6-24T3:38:38Z</time></trkpt>
<trkpt lat="46.50519" lon="6.75005"><ele></ele><time>2016-6-24T3:38:41Z</time></trkpt>
<trkpt lat="46.50531" lon="6.75024"><ele></ele><time>2016-6-24T3:38:44Z</time></trkpt>
<trkpt lat="46.50546" lon="6.75047"><ele></ele><time>2016-6-24T3:38:47Z</time></trkpt>
<trkpt lat="46.50566" lon="6.75062"><ele></ele><time>2016-6-24T3:38:50Z</time></trkpt>
<trkpt lat="46.50584" lon="6.75057"><ele></ele><time>2016-6-24T3:38:53Z</time></trkpt>
<trkpt lat="46.5059" lon="6.75054"><ele></ele><time>2016-6-24T3:38:56Z</time></trkpt>
<trkpt lat="46.50607" lon="6.75034"><ele></ele><time>2016-6-24T3:38:59Z</time></trkpt>
<trkpt lat="46.5061" lon="6.75006"><ele></ele><time>2016-6-24T3:39:2Z</time></trkpt>
<trkpt lat="46.50611" lon="6.74974"><ele></ele><time>2016-6-24T3:39:5Z</time></trkpt>
<trkpt lat="46.50616" lon="6.74939"><ele></ele><time>2016-6-24T3:39:8Z</time></trkpt>
<trkpt lat="46.50624" lon="6.74917"><ele></ele><time>2016-6-24T3:39:11Z</time></trkpt>
<trkpt lat="46.50633" lon="6.74905"><ele></ele><time>2016-6-24T3:39:14Z</time></trkpt>
<trkpt lat="46.50651" lon="6.74907"><ele></ele><time>2016-6-24T3:39:17Z</time></trkpt>
<trkpt lat="46.50658" lon="6.74913"><ele></ele><time>2016-6-24T3:39:20Z</time></trkpt>
<trkpt lat="46.50668" lon="6.74922"><ele></ele><time>2016-6-24T3:39:23Z</time></trkpt>
<trkpt lat="46.50685" lon="6.74944"><ele></ele><time>2016-6-24T3:39:26Z</time></trkpt>
<trkpt lat="46.50698" lon="6.74966"><ele></ele><time>2016-6-24T3:39:29Z</time></trkpt>
<trkpt lat="46.50703" lon="6.74973"><ele></ele><time>2016-6-24T3:39:32Z</time></trkpt>
<trkpt lat="46.50716" lon="6.74988"><ele></ele><time>2016-6-24T3:39:35Z</time></trkpt>
<trkpt lat="46.50732" lon="6.74999"><ele></ele><time>2016-6-24T3:39:38Z</time></trkpt>
<trkpt lat="46.50751" lon="6.75008"><ele></ele><time>2016-6-24T3:39:41Z</time></trkpt>
<trkpt lat="46.50769" lon="6.75018"><ele></ele><time>2016-6-24T3:39:44Z</time></trkpt>
<trkpt lat="46.5079" lon="6.75034"><ele></ele><time>2016-6-24T3:39:47Z</time></trkpt>
<trkpt lat="46.50794" lon="6.75036"><ele></ele><time>2016-6-24T3:39:50Z</time></trkpt>
<trkpt lat="46.508" lon="6.75039"><ele></ele><time>2016-6-24T3:39:53Z</time></trkpt>
<trkpt lat="46.50799" lon="6.75016"><ele></ele><time>2016-6-24T3:39:56Z</time></trkpt>
<trkpt lat="46.50794" lon="6.75003"><ele></ele><time>2016-6-24T3:39:59Z</time></trkpt>
<trkpt lat="46.50784" lon="6.74973"><ele></ele><time>2016-6-24T3:40:2Z</time></trkpt>
<trkpt lat="46.50778" lon="6.74943"><ele></ele><time>2016-6-24T3:40:5Z</time></trkpt>
<trkpt lat="46.50773" lon="6.74919"><ele></ele><time>2016-6-24T3:40:8Z</time></trkpt>
<trkpt lat="46.50763" lon="6.74896"><ele></ele><time>2016-6-24T3:40:11Z</time></trkpt>
<trkpt lat="46.50753" lon="6.74872"><ele></ele><time>2016-6-24T3:40:14Z</time></trkpt>
<trkpt lat="46.50742" lon="6.74843"><ele></ele><time>2016-6-24T3:40:17Z</time></trkpt>
<trkpt lat="46.50733" lon="6.74824"><ele></ele><time>2016-6-24T3:40:20Z</time></trkpt>
<trkpt lat="46.50726" lon="6.74813"><ele></ele><time>2016-6-24T3:40:23Z</time></trkpt>
<trkpt lat="46.50711" lon="6.74794"><ele></ele><time>2016-6-24T3:40:26Z</time></trkpt>
<trkpt lat="46.50698" lon="6.74774"><ele></ele><time>2016-6-24T3:40:29Z</time></trkpt>
<trkpt lat="46.50684" lon="6.74751"><ele></ele><time>2016-6-24T3:40:32Z</time></trkpt>
<trkpt lat="46.50672" lon="6.74729"><ele></ele><time>2016-6-24T3:40:35Z</time></trkpt>
<trkpt lat="46.50664" lon="6.74711"><ele></ele><time>2016-6-24T3:40:38Z</time></trkpt>
<trkpt lat="46.50656" lon="6.74694"><ele></ele><time>2016-6-24T3:40:41Z</time></trkpt>
<trkpt lat="46.50645" lon="6.74671"><ele></ele><time>2016-6-24T3:40:44Z</time></trkpt>
<trkpt lat="46.50654" lon="6.74649"><ele></ele><time>2016-6-24T3:40:47Z</time></trkpt>
<trkpt lat="46.50659" lon="6.74644"><ele></ele><time>2016-6-24T3:40:50Z</time></trkpt>
<trkpt lat="46.50675" lon="6.7463"><ele></ele><time>2016-6-24T3:40:53Z</time></trkpt>
<trkpt lat="46.50689" lon="6.74619"><ele></ele><time>2016-6-24T3:40:56Z</time></trkpt>
<trkpt lat="46.50698" lon="6.74596"><ele></ele><time>2016-6-24T3:40:59Z</time></trkpt>
<trkpt lat="46.50698" lon="6.7459"><ele></ele><time>2016-6-24T3:41:2Z</time></trkpt>
<trkpt lat="46.50699" lon="6.74569"><ele></ele><time>2016-6-24T3:41:5Z</time></trkpt>
<trkpt lat="46.50699" lon="6.74564"><ele></ele><time>2016-6-24T3:41:8Z</time></trkpt>
<trkpt lat="46.50701" lon="6.74548"><ele></ele><time>2016-6-24T3:41:11Z</time></trkpt>
<trkpt lat="46.50704" lon="6.74524"><ele></ele><time>2016-6-24T3:41:14Z</time></trkpt>
<trkpt lat="46.50705" lon="6.7451"><ele></ele><time>2016-6-24T3:41:17Z</time></trkpt>
<trkpt lat="46.507" lon="6.74484"><ele></ele><time>2016-6-24T3:41:20Z</time></trkpt>
<trkpt lat="46.50696" lon="6.74473"><ele></ele><time>2016-6-24T3:41:23Z</time></trkpt>
<trkpt lat="46.50687" lon="6.74449"><ele></ele><time>2016-6-24T3:41:26Z</time></trkpt>
<trkpt lat="46.50677" lon="6.74425"><ele></ele><time>2016-6-24T3:41:29Z</time></trkpt>
<trkpt lat="46.50669" lon="6.74399"><ele></ele><time>2016-6-24T3:41:32Z</time></trkpt>
<trkpt lat="46.50663" lon="6.74384"><ele></ele><time>2016-6-24T3:41:35Z</time></trkpt>
<trkpt lat="46.50638" lon="6.7436"><ele></ele><time>2016-6-24T3:41:38Z</time></trkpt>
<trkpt lat="46.50619" lon="6.74342"><ele></ele><time>2016-6-24T3:41:41Z</time></trkpt>
<trkpt lat="46.50612" lon="6.74335"><ele></ele><time>2016-6-24T3:41:44Z</time></trkpt>
<trkpt lat="46.50596" lon="6.7432"><ele></ele><time>2016-6-24T3:41:47Z</time></trkpt>
<trkpt lat="46.5058" lon="6.74306"><ele></ele><time>2016-6-24T3:41:50Z</time></trkpt>
<trkpt lat="46.50564" lon="6.74288"><ele></ele><time>2016-6-24T3:41:53Z</time></trkpt>
<trkpt lat="46.50549" lon="6.74265"><ele></ele><time>2016-6-24T3:41:56Z</time></trkpt>
<trkpt lat="46.50546" lon="6.74256"><ele></ele><time>2016-6-24T3:41:59Z</time></trkpt>
<trkpt lat="46.50537" lon="6.74231"><ele></ele><time>2016-6-24T3:42:2Z</time></trkpt>
<trkpt lat="46.50536" lon="6.74229"><ele></ele><time>2016-6-24T3:42:5Z</time></trkpt>
<trkpt lat="46.5053" lon="6.74203"><ele></ele><time>2016-6-24T3:42:8Z</time></trkpt>
<trkpt lat="46.50528" lon="6.74176"><ele></ele><time>2016-6-24T3:42:11Z</time></trkpt>
<trkpt lat="46.50527" lon="6.74154"><ele></ele><time>2016-6-24T3:42:14Z</time></trkpt>
<trkpt lat="46.5054" lon="6.74139"><ele></ele><time>2016-6-24T3:42:17Z</time></trkpt>
<trkpt lat="46.50539" lon="6.74136"><ele></ele><time>2016-6-24T3:42:20Z</time></trkpt>
<trkpt lat="46.50541" lon="6.74136"><ele></ele><time>2016-6-24T3:42:23Z</time></trkpt>
<trkpt lat="46.50542" lon="6.74136"><ele></ele><time>2016-6-24T3:42:26Z</time></trkpt>
<trkpt lat="46.50543" lon="6.74135"><ele></ele><time>2016-6-24T3:42:29Z</time></trkpt>
<trkpt lat="46.50543" lon="6.74135"><ele></ele><time>2016-6-24T3:42:32Z</time></trkpt>
<trkpt lat="46.50543" lon="6.74135"><ele></ele><time>2016-6-24T3:42:35Z</time></trkpt>
<trkpt lat="46.50532" lon="6.74133"><ele></ele><time>2016-6-24T3:42:38Z</time></trkpt>
<trkpt lat="46.50523" lon="6.74132"><ele></ele><time>2016-6-24T3:42:41Z</time></trkpt>
<trkpt lat="46.50502" lon="6.74126"><ele></ele><time>2016-6-24T3:42:44Z</time></trkpt>
<trkpt lat="46.50476" lon="6.7412"><ele></ele><time>2016-6-24T3:42:47Z</time></trkpt>
<trkpt lat="46.50457" lon="6.74118"><ele></ele><time>2016-6-24T3:42:50Z</time></trkpt>
<trkpt lat="46.50432" lon="6.74114"><ele></ele><time>2016-6-24T3:42:53Z</time></trkpt>
<trkpt lat="46.50425" lon="6.74111"><ele></ele><time>2016-6-24T3:42:56Z</time></trkpt>
<trkpt lat="46.50411" lon="6.74093"><ele></ele><time>2016-6-24T3:42:59Z</time></trkpt>
<trkpt lat="46.50411" lon="6.74059"><ele></ele><time>2016-6-24T3:43:2Z</time></trkpt>
<trkpt lat="46.50412" lon="6.74045"><ele></ele><time>2016-6-24T3:43:5Z</time></trkpt>
<trkpt lat="46.50414" lon="6.74033"><ele></ele><time>2016-6-24T3:43:8Z</time></trkpt>
<trkpt lat="46.50418" lon="6.74007"><ele></ele><time>2016-6-24T3:43:11Z</time></trkpt>
<trkpt lat="46.50432" lon="6.73988"><ele></ele><time>2016-6-24T3:43:14Z</time></trkpt>
<trkpt lat="46.5044" lon="6.73981"><ele></ele><time>2016-6-24T3:43:17Z</time></trkpt>
<trkpt lat="46.50456" lon="6.73965"><ele></ele><time>2016-6-24T3:43:20Z</time></trkpt>
<trkpt lat="46.50474" lon="6.73946"><ele></ele><time>2016-6-24T3:43:23Z</time></trkpt>
<trkpt lat="46.50492" lon="6.73929"><ele></ele><time>2016-6-24T3:43:26Z</time></trkpt>
<trkpt lat="46.50501" lon="6.7392"><ele></ele><time>2016-6-24T3:43:29Z</time></trkpt>
<trkpt lat="46.50518" lon="6.739"><ele></ele><time>2016-6-24T3:43:32Z</time></trkpt>
<trkpt lat="46.50524" lon="6.7389"><ele></ele><time>2016-6-24T3:43:35Z</time></trkpt>
<trkpt lat="46.5054" lon="6.73859"><ele></ele><time>2016-6-24T3:43:38Z</time></trkpt>
<trkpt lat="46.50545" lon="6.73847"><ele></ele><time>2016-6-24T3:43:41Z</time></trkpt>
<trkpt lat="46.50553" lon="6.73823"><ele></ele><time>2016-6-24T3:43:44Z</time></trkpt>
<trkpt lat="46.5056" lon="6.73798"><ele></ele><time>2016-6-24T3:43:47Z</time></trkpt>
<trkpt lat="46.50564" lon="6.73772"><ele></ele><time>2016-6-24T3:43:50Z</time></trkpt>
<trkpt lat="46.50559" lon="6.73734"><ele></ele><time>2016-6-24T3:43:53Z</time></trkpt>
<trkpt lat="46.50556" lon="6.73724"><ele></ele><time>2016-6-24T3:43:56Z</time></trkpt>
<trkpt lat="46.50553" lon="6.73704"><ele></ele><time>2016-6-24T3:43:59Z</time></trkpt>
<trkpt lat="46.50552" lon="6.73676"><ele></ele><time>2016-6-24T3:44:2Z</time></trkpt>
<trkpt lat="46.50552" lon="6.73647"><ele></ele><time>2016-6-24T3:44:5Z</time></trkpt>
<trkpt lat="46.5055" lon="6.73617"><ele></ele><time>2016-6-24T3:44:8Z</time></trkpt>
<trkpt lat="46.50546" lon="6.7359"><ele></ele><time>2016-6-24T3:44:11Z</time></trkpt>
<trkpt lat="46.50544" lon="6.73562"><ele></ele><time>2016-6-24T3:44:14Z</time></trkpt>
<trkpt lat="46.50547" lon="6.73525"><ele></ele><time>2016-6-24T3:44:17Z</time></trkpt>
<trkpt lat="46.50555" lon="6.735"><ele></ele><time>2016-6-24T3:44:20Z</time></trkpt>
<trkpt lat="46.50564" lon="6.73475"><ele></ele><time>2016-6-24T3:44:23Z</time></trkpt>
<trkpt lat="46.50572" lon="6.73451"><ele></ele><time>2016-6-24T3:44:26Z</time></trkpt>
<trkpt lat="46.50583" lon="6.73419"><ele></ele><time>2016-6-24T3:44:29Z</time></trkpt>
<trkpt lat="46.50589" lon="6.73398"><ele></ele><time>2016-6-24T3:44:32Z</time></trkpt>
<trkpt lat="46.5059" lon="6.7337"><ele></ele><time>2016-6-24T3:44:35Z</time></trkpt>
<trkpt lat="46.5059" lon="6.73339"><ele></ele><time>2016-6-24T3:44:38Z</time></trkpt>
<trkpt lat="46.50591" lon="6.73324"><ele></ele><time>2016-6-24T3:44:41Z</time></trkpt>
<trkpt lat="46.50595" lon="6.73296"><ele></ele><time>2016-6-24T3:44:44Z</time></trkpt>
<trkpt lat="46.50602" lon="6.73272"><ele></ele><time>2016-6-24T3:44:47Z</time></trkpt>
<trkpt lat="46.50606" lon="6.73262"><ele></ele><time>2016-6-24T3:44:50Z</time></trkpt>
<trkpt lat="46.50618" lon="6.73237"><ele></ele><time>2016-6-24T3:44:53Z</time></trkpt>
<trkpt lat="46.50619" lon="6.73231"><ele></ele><time>2016-6-24T3:44:56Z</time></trkpt>
<trkpt lat="46.50605" lon="6.73236"><ele></ele><time>2016-6-24T3:44:59Z</time></trkpt>
<trkpt lat="46.506" lon="6.73242"><ele></ele><time>2016-6-24T3:45:2Z</time></trkpt>
<trkpt lat="46.50594" lon="6.73248"><ele></ele><time>2016-6-24T3:45:5Z</time></trkpt>
<trkpt lat="46.50575" lon="6.73272"><ele></ele><time>2016-6-24T3:45:8Z</time></trkpt>
<trkpt lat="46.5056" lon="6.73292"><ele></ele><time>2016-6-24T3:45:11Z</time></trkpt>
<trkpt lat="46.50553" lon="6.73304"><ele></ele><time>2016-6-24T3:45:14Z</time></trkpt>
<trkpt lat="46.50542" lon="6.73329"><ele></ele><time>2016-6-24T3:45:17Z</time></trkpt>
<trkpt lat="46.50537" lon="6.7334"><ele></ele><time>2016-6-24T3:45:20Z</time></trkpt>
<trkpt lat="46.50519" lon="6.7334"><ele></ele><time>2016-6-24T3:45:23Z</time></trkpt>
<trkpt lat="46.50515" lon="6.73332"><ele></ele><time>2016-6-24T3:45:26Z</time></trkpt>
<trkpt lat="46.50499" lon="6.73305"><ele></ele><time>2016-6-24T3:45:29Z</time></trkpt>
<trkpt lat="46.50486" lon="6.73283"><ele></ele><time>2016-6-24T3:45:32Z</time></trkpt>
<trkpt lat="46.50472" lon="6.73259"><ele></ele><time>2016-6-24T3:45:35Z</time></trkpt>
<trkpt lat="46.50457" lon="6.73233"><ele></ele><time>2016-6-24T3:45:38Z</time></trkpt>
<trkpt lat="46.50442" lon="6.73206"><ele></ele><time>2016-6-24T3:45:41Z</time></trkpt>
<trkpt lat="46.50426" lon="6.73178"><ele></ele><time>2016-6-24T3:45:44Z</time></trkpt>
<trkpt lat="46.5041" lon="6.7315"><ele></ele><time>2016-6-24T3:45:47Z</time></trkpt>
<trkpt lat="46.50394" lon="6.73124"><ele></ele><time>2016-6-24T3:45:50Z</time></trkpt>
<trkpt lat="46.50379" lon="6.73097"><ele></ele><time>2016-6-24T3:45:53Z</time></trkpt>
<trkpt lat="46.50364" lon="6.73072"><ele></ele><time>2016-6-24T3:45:56Z</time></trkpt>
<trkpt lat="46.5035" lon="6.73047"><ele></ele><time>2016-6-24T3:45:59Z</time></trkpt>
<trkpt lat="46.50337" lon="6.73024"><ele></ele><time>2016-6-24T3:46:2Z</time></trkpt>
<trkpt lat="46.50325" lon="6.73002"><ele></ele><time>2016-6-24T3:46:5Z</time></trkpt>
<trkpt lat="46.5032" lon="6.72991"><ele></ele><time>2016-6-24T3:46:8Z</time></trkpt>
<trkpt lat="46.50314" lon="6.72965"><ele></ele><time>2016-6-24T3:46:11Z</time></trkpt>
<trkpt lat="46.50313" lon="6.72959"><ele></ele><time>2016-6-24T3:46:14Z</time></trkpt>
<trkpt lat="46.50311" lon="6.72949"><ele></ele><time>2016-6-24T3:46:17Z</time></trkpt>
<trkpt lat="46.50294" lon="6.72931"><ele></ele><time>2016-6-24T3:46:20Z</time></trkpt>
<trkpt lat="46.5028" lon="6.72918"><ele></ele><time>2016-6-24T3:46:23Z</time></trkpt>
<trkpt lat="46.50265" lon="6.729"><ele></ele><time>2016-6-24T3:46:26Z</time></trkpt>
<trkpt lat="46.50249" lon="6.7288"><ele></ele><time>2016-6-24T3:46:29Z</time></trkpt>
<trkpt lat="46.50231" lon="6.72858"><ele></ele><time>2016-6-24T3:46:32Z</time></trkpt>
<trkpt lat="46.50211" lon="6.72839"><ele></ele><time>2016-6-24T3:46:35Z</time></trkpt>
<trkpt lat="46.50196" lon="6.72828"><ele></ele><time>2016-6-24T3:46:38Z</time></trkpt>
<trkpt lat="46.50175" lon="6.72813"><ele></ele><time>2016-6-24T3:46:41Z</time></trkpt>
<trkpt lat="46.50154" lon="6.72799"><ele></ele><time>2016-6-24T3:46:44Z</time></trkpt>
<trkpt lat="46.50148" lon="6.72793"><ele></ele><time>2016-6-24T3:46:47Z</time></trkpt>
<trkpt lat="46.50134" lon="6.7277"><ele></ele><time>2016-6-24T3:46:50Z</time></trkpt>
<trkpt lat="46.50125" lon="6.72737"><ele></ele><time>2016-6-24T3:46:53Z</time></trkpt>
<trkpt lat="46.50122" lon="6.72709"><ele></ele><time>2016-6-24T3:46:56Z</time></trkpt>
<trkpt lat="46.50121" lon="6.72693"><ele></ele><time>2016-6-24T3:46:59Z</time></trkpt>
<trkpt lat="46.50118" lon="6.72678"><ele></ele><time>2016-6-24T3:47:2Z</time></trkpt>
<trkpt lat="46.50111" lon="6.72648"><ele></ele><time>2016-6-24T3:47:5Z</time></trkpt>
<trkpt lat="46.50105" lon="6.72618"><ele></ele><time>2016-6-24T3:47:8Z</time></trkpt>
<trkpt lat="46.50097" lon="6.72591"><ele></ele><time>2016-6-24T3:47:11Z</time></trkpt>
<trkpt lat="46.50086" lon="6.72568"><ele></ele><time>2016-6-24T3:47:14Z</time></trkpt>
<trkpt lat="46.50069" lon="6.72538"><ele></ele><time>2016-6-24T3:47:17Z</time></trkpt>
<trkpt lat="46.50054" lon="6.72508"><ele></ele><time>2016-6-24T3:47:20Z</time></trkpt>
<trkpt lat="46.50042" lon="6.72478"><ele></ele><time>2016-6-24T3:47:23Z</time></trkpt>
<trkpt lat="46.50038" lon="6.72468"><ele></ele><time>2016-6-24T3:47:26Z</time></trkpt>
<trkpt lat="46.50028" lon="6.72439"><ele></ele><time>2016-6-24T3:47:29Z</time></trkpt>
<trkpt lat="46.50018" lon="6.72408"><ele></ele><time>2016-6-24T3:47:32Z</time></trkpt>
<trkpt lat="46.50009" lon="6.72375"><ele></ele><time>2016-6-24T3:47:35Z</time></trkpt>
<trkpt lat="46.49999" lon="6.72344"><ele></ele><time>2016-6-24T3:47:38Z</time></trkpt>
<trkpt lat="46.49989" lon="6.72316"><ele></ele><time>2016-6-24T3:47:41Z</time></trkpt>
<trkpt lat="46.4998" lon="6.72283"><ele></ele><time>2016-6-24T3:47:44Z</time></trkpt>
<trkpt lat="46.4998" lon="6.72257"><ele></ele><time>2016-6-24T3:47:47Z</time></trkpt>
<trkpt lat="46.49983" lon="6.72222"><ele></ele><time>2016-6-24T3:47:50Z</time></trkpt>
<trkpt lat="46.49987" lon="6.72185"><ele></ele><time>2016-6-24T3:47:53Z</time></trkpt>
<trkpt lat="46.49989" lon="6.72159"><ele></ele><time>2016-6-24T3:47:56Z</time></trkpt>
<trkpt lat="46.4999" lon="6.72134"><ele></ele><time>2016-6-24T3:47:59Z</time></trkpt>
<trkpt lat="46.49981" lon="6.72098"><ele></ele><time>2016-6-24T3:48:2Z</time></trkpt>
<trkpt lat="46.4997" lon="6.72078"><ele></ele><time>2016-6-24T3:48:5Z</time></trkpt>
<trkpt lat="46.49959" lon="6.72054"><ele></ele><time>2016-6-24T3:48:8Z</time></trkpt>
<trkpt lat="46.49957" lon="6.72047"><ele></ele><time>2016-6-24T3:48:11Z</time></trkpt>
<trkpt lat="46.49944" lon="6.72031"><ele></ele><time>2016-6-24T3:48:14Z</time></trkpt>
<trkpt lat="46.4994" lon="6.72026"><ele></ele><time>2016-6-24T3:48:17Z</time></trkpt>
<trkpt lat="46.49929" lon="6.72005"><ele></ele><time>2016-6-24T3:48:20Z</time></trkpt>
<trkpt lat="46.49915" lon="6.71979"><ele></ele><time>2016-6-24T3:48:23Z</time></trkpt>
<trkpt lat="46.49902" lon="6.71957"><ele></ele><time>2016-6-24T3:48:26Z</time></trkpt>
<trkpt lat="46.49883" lon="6.71931"><ele></ele><time>2016-6-24T3:48:29Z</time></trkpt>
<trkpt lat="46.49867" lon="6.71915"><ele></ele><time>2016-6-24T3:48:32Z</time></trkpt>
<trkpt lat="46.4985" lon="6.71898"><ele></ele><time>2016-6-24T3:48:35Z</time></trkpt>
<trkpt lat="46.49842" lon="6.71889"><ele></ele><time>2016-6-24T3:48:38Z</time></trkpt>
<trkpt lat="46.49828" lon="6.71867"><ele></ele><time>2016-6-24T3:48:41Z</time></trkpt>
<trkpt lat="46.49819" lon="6.71841"><ele></ele><time>2016-6-24T3:48:44Z</time></trkpt>
<trkpt lat="46.49814" lon="6.71829"><ele></ele><time>2016-6-24T3:48:47Z</time></trkpt>
<trkpt lat="46.49804" lon="6.71803"><ele></ele><time>2016-6-24T3:48:50Z</time></trkpt>
<trkpt lat="46.49794" lon="6.71793"><ele></ele><time>2016-6-24T3:48:53Z</time></trkpt>
<trkpt lat="46.49793" lon="6.71793"><ele></ele><time>2016-6-24T3:48:56Z</time></trkpt>
<trkpt lat="46.49792" lon="6.71775"><ele></ele><time>2016-6-24T3:48:59Z</time></trkpt>
<trkpt lat="46.49798" lon="6.71743"><ele></ele><time>2016-6-24T3:49:2Z</time></trkpt>
<trkpt lat="46.498" lon="6.71737"><ele></ele><time>2016-6-24T3:49:5Z</time></trkpt>
<trkpt lat="46.49813" lon="6.71707"><ele></ele><time>2016-6-24T3:49:8Z</time></trkpt>
<trkpt lat="46.49828" lon="6.71684"><ele></ele><time>2016-6-24T3:49:11Z</time></trkpt>
<trkpt lat="46.49845" lon="6.71662"><ele></ele><time>2016-6-24T3:49:14Z</time></trkpt>
<trkpt lat="46.49863" lon="6.71644"><ele></ele><time>2016-6-24T3:49:17Z</time></trkpt>
<trkpt lat="46.49875" lon="6.71633"><ele></ele><time>2016-6-24T3:49:20Z</time></trkpt>
<trkpt lat="46.4988" lon="6.71626"><ele></ele><time>2016-6-24T3:49:23Z</time></trkpt>
<trkpt lat="46.49885" lon="6.7162"><ele></ele><time>2016-6-24T3:49:26Z</time></trkpt>
<trkpt lat="46.49901" lon="6.71603"><ele></ele><time>2016-6-24T3:49:29Z</time></trkpt>
<trkpt lat="46.49903" lon="6.716"><ele></ele><time>2016-6-24T3:49:32Z</time></trkpt>
<trkpt lat="46.49916" lon="6.71583"><ele></ele><time>2016-6-24T3:49:35Z</time></trkpt>
<trkpt lat="46.49923" lon="6.71568"><ele></ele><time>2016-6-24T3:49:38Z</time></trkpt>
<trkpt lat="46.49925" lon="6.71561"><ele></ele><time>2016-6-24T3:49:41Z</time></trkpt>
<trkpt lat="46.49925" lon="6.71533"><ele></ele><time>2016-6-24T3:49:44Z</time></trkpt>
<trkpt lat="46.49937" lon="6.71509"><ele></ele><time>2016-6-24T3:49:47Z</time></trkpt>
<trkpt lat="46.49941" lon="6.71504"><ele></ele><time>2016-6-24T3:49:50Z</time></trkpt>
<trkpt lat="46.49956" lon="6.71487"><ele></ele><time>2016-6-24T3:49:53Z</time></trkpt>
<trkpt lat="46.49975" lon="6.7147"><ele></ele><time>2016-6-24T3:49:56Z</time></trkpt>
<trkpt lat="46.49995" lon="6.7146"><ele></ele><time>2016-6-24T3:49:59Z</time></trkpt>
<trkpt lat="46.50009" lon="6.71452"><ele></ele><time>2016-6-24T3:50:2Z</time></trkpt>
<trkpt lat="46.50023" lon="6.71443"><ele></ele><time>2016-6-24T3:50:5Z</time></trkpt>
<trkpt lat="46.50042" lon="6.7143"><ele></ele><time>2016-6-24T3:50:8Z</time></trkpt>
<trkpt lat="46.50063" lon="6.71419"><ele></ele><time>2016-6-24T3:50:11Z</time></trkpt>
<trkpt lat="46.50083" lon="6.7141"><ele></ele><time>2016-6-24T3:50:14Z</time></trkpt>
<trkpt lat="46.50104" lon="6.71397"><ele></ele><time>2016-6-24T3:50:17Z</time></trkpt>
<trkpt lat="46.5012" lon="6.71386"><ele></ele><time>2016-6-24T3:50:20Z</time></trkpt>
<trkpt lat="46.5011" lon="6.71377"><ele></ele><time>2016-6-24T3:50:23Z</time></trkpt>
<trkpt lat="46.50086" lon="6.71382"><ele></ele><time>2016-6-24T3:50:26Z</time></trkpt>
<trkpt lat="46.50079" lon="6.71382"><ele></ele><time>2016-6-24T3:50:29Z</time></trkpt>
<trkpt lat="46.50053" lon="6.7138"><ele></ele><time>2016-6-24T3:50:32Z</time></trkpt>
<trkpt lat="46.50027" lon="6.71378"><ele></ele><time>2016-6-24T3:50:35Z</time></trkpt>
<trkpt lat="46.50013" lon="6.71376"><ele></ele><time>2016-6-24T3:50:38Z</time></trkpt>
<trkpt lat="46.50004" lon="6.71373"><ele></ele><time>2016-6-24T3:50:41Z</time></trkpt>
<trkpt lat="46.5001" lon="6.71347"><ele></ele><time>2016-6-24T3:50:44Z</time></trkpt>
<trkpt lat="46.50023" lon="6.71337"><ele></ele><time>2016-6-24T3:50:47Z</time></trkpt>
<trkpt lat="46.50036" lon="6.71325"><ele></ele><time>2016-6-24T3:50:50Z</time></trkpt>
<trkpt lat="46.50049" lon="6.71311"><ele></ele><time>2016-6-24T3:50:53Z</time></trkpt>
<trkpt lat="46.50071" lon="6.71293"><ele></ele><time>2016-6-24T3:50:56Z</time></trkpt>
<trkpt lat="46.50095" lon="6.71277"><ele></ele><time>2016-6-24T3:50:59Z</time></trkpt>
<trkpt lat="46.5011" lon="6.71263"><ele></ele><time>2016-6-24T3:51:2Z</time></trkpt>
<trkpt lat="46.50124" lon="6.71246"><ele></ele><time>2016-6-24T3:51:5Z</time></trkpt>
<trkpt lat="46.50142" lon="6.71219"><ele></ele><time>2016-6-24T3:51:8Z</time></trkpt>
<trkpt lat="46.50152" lon="6.71201"><ele></ele><time>2016-6-24T3:51:11Z</time></trkpt>
<trkpt lat="46.50163" lon="6.71179"><ele></ele><time>2016-6-24T3:51:14Z</time></trkpt>
<trkpt lat="46.50173" lon="6.71159"><ele></ele><time>2016-6-24T3:51:17Z</time></trkpt>
<trkpt lat="46.50179" lon="6.7113"><ele></ele><time>2016-6-24T3:51:20Z</time></trkpt>
<trkpt lat="46.50183" lon="6.71102"><ele></ele><time>2016-6-24T3:51:23Z</time></trkpt>
<trkpt lat="46.50176" lon="6.7107"><ele></ele><time>2016-6-24T3:51:26Z</time></trkpt>
<trkpt lat="46.50175" lon="6.71064"><ele></ele><time>2016-6-24T3:51:29Z</time></trkpt>
<trkpt lat="46.50176" lon="6.71051"><ele></ele><time>2016-6-24T3:51:32Z</time></trkpt>
<trkpt lat="46.5019" lon="6.71035"><ele></ele><time>2016-6-24T3:51:35Z</time></trkpt>
<trkpt lat="46.502" lon="6.71025"><ele></ele><time>2016-6-24T3:51:38Z</time></trkpt>
<trkpt lat="46.50203" lon="6.71022"><ele></ele><time>2016-6-24T3:51:41Z</time></trkpt>
<trkpt lat="46.50217" lon="6.71004"><ele></ele><time>2016-6-24T3:51:44Z</time></trkpt>
<trkpt lat="46.50232" lon="6.70981"><ele></ele><time>2016-6-24T3:51:47Z</time></trkpt>
<trkpt lat="46.5024" lon="6.70949"><ele></ele><time>2016-6-24T3:51:50Z</time></trkpt>
<trkpt lat="46.5024" lon="6.70938"><ele></ele><time>2016-6-24T3:51:53Z</time></trkpt>
<trkpt lat="46.50237" lon="6.70909"><ele></ele><time>2016-6-24T3:51:56Z</time></trkpt>
<trkpt lat="46.50228" lon="6.70885"><ele></ele><time>2016-6-24T3:51:59Z</time></trkpt>
<trkpt lat="46.50221" lon="6.70873"><ele></ele><time>2016-6-24T3:52:2Z</time></trkpt>
<trkpt lat="46.50213" lon="6.70861"><ele></ele><time>2016-6-24T3:52:5Z</time></trkpt>
<trkpt lat="46.5021" lon="6.70848"><ele></ele><time>2016-6-24T3:52:8Z</time></trkpt>
<trkpt lat="46.50211" lon="6.70837"><ele></ele><time>2016-6-24T3:52:11Z</time></trkpt>
<trkpt lat="46.50211" lon="6.70832"><ele></ele><time>2016-6-24T3:52:14Z</time></trkpt>
<trkpt lat="46.50213" lon="6.70806"><ele></ele><time>2016-6-24T3:52:17Z</time></trkpt>
<trkpt lat="46.50213" lon="6.70787"><ele></ele><time>2016-6-24T3:52:20Z</time></trkpt>
<trkpt lat="46.50212" lon="6.70767"><ele></ele><time>2016-6-24T3:52:23Z</time></trkpt>
<trkpt lat="46.50214" lon="6.7074"><ele></ele><time>2016-6-24T3:52:26Z</time></trkpt>
<trkpt lat="46.50215" lon="6.70735"><ele></ele><time>2016-6-24T3:52:29Z</time></trkpt>
<trkpt lat="46.50203" lon="6.70718"><ele></ele><time>2016-6-24T3:52:32Z</time></trkpt>
<trkpt lat="46.50183" lon="6.70702"><ele></ele><time>2016-6-24T3:52:35Z</time></trkpt>
<trkpt lat="46.50167" lon="6.70689"><ele></ele><time>2016-6-24T3:52:38Z</time></trkpt>
<trkpt lat="46.50164" lon="6.70661"><ele></ele><time>2016-6-24T3:52:41Z</time></trkpt>
<trkpt lat="46.50165" lon="6.70656"><ele></ele><time>2016-6-24T3:52:44Z</time></trkpt>
<trkpt lat="46.50166" lon="6.70653"><ele></ele><time>2016-6-24T3:52:47Z</time></trkpt>
<trkpt lat="46.50174" lon="6.70639"><ele></ele><time>2016-6-24T3:52:50Z</time></trkpt>
<trkpt lat="46.50178" lon="6.70634"><ele></ele><time>2016-6-24T3:52:53Z</time></trkpt>
<trkpt lat="46.5018" lon="6.7063"><ele></ele><time>2016-6-24T3:52:56Z</time></trkpt>
<trkpt lat="46.50181" lon="6.70628"><ele></ele><time>2016-6-24T3:52:59Z</time></trkpt>
<trkpt lat="46.50187" lon="6.70618"><ele></ele><time>2016-6-24T3:53:2Z</time></trkpt>
<trkpt lat="46.50198" lon="6.70594"><ele></ele><time>2016-6-24T3:53:5Z</time></trkpt>
<trkpt lat="46.50205" lon="6.70572"><ele></ele><time>2016-6-24T3:53:8Z</time></trkpt>
<trkpt lat="46.50207" lon="6.70545"><ele></ele><time>2016-6-24T3:53:11Z</time></trkpt>
<trkpt lat="46.50204" lon="6.70517"><ele></ele><time>2016-6-24T3:53:14Z</time></trkpt>
<trkpt lat="46.50195" lon="6.70491"><ele></ele><time>2016-6-24T3:53:17Z</time></trkpt>
<trkpt lat="46.50191" lon="6.70478"><ele></ele><time>2016-6-24T3:53:20Z</time></trkpt>
<trkpt lat="46.50182" lon="6.70454"><ele></ele><time>2016-6-24T3:53:23Z</time></trkpt>
<trkpt lat="46.50173" lon="6.70432"><ele></ele><time>2016-6-24T3:53:26Z</time></trkpt>
<trkpt lat="46.50167" lon="6.70422"><ele></ele><time>2016-6-24T3:53:29Z</time></trkpt>
<trkpt lat="46.50154" lon="6.70403"><ele></ele><time>2016-6-24T3:53:32Z</time></trkpt>
<trkpt lat="46.5014" lon="6.70378"><ele></ele><time>2016-6-24T3:53:35Z</time></trkpt>
<trkpt lat="46.50137" lon="6.70362"><ele></ele><time>2016-6-24T3:53:38Z</time></trkpt>
<trkpt lat="46.50132" lon="6.7035"><ele></ele><time>2016-6-24T3:53:41Z</time></trkpt>
<trkpt lat="46.50128" lon="6.70349"><ele></ele><time>2016-6-24T3:53:44Z</time></trkpt>
<trkpt lat="46.5011" lon="6.70348"><ele></ele><time>2016-6-24T3:53:47Z</time></trkpt>
<trkpt lat="46.50093" lon="6.70361"><ele></ele><time>2016-6-24T3:53:50Z</time></trkpt>
<trkpt lat="46.50075" lon="6.70378"><ele></ele><time>2016-6-24T3:53:53Z</time></trkpt>
<trkpt lat="46.50062" lon="6.7039"><ele></ele><time>2016-6-24T3:53:56Z</time></trkpt>
<trkpt lat="46.50038" lon="6.70402"><ele></ele><time>2016-6-24T3:53:59Z</time></trkpt>
<trkpt lat="46.50017" lon="6.70409"><ele></ele><time>2016-6-24T3:54:2Z</time></trkpt>
<trkpt lat="46.49999" lon="6.70416"><ele></ele><time>2016-6-24T3:54:5Z</time></trkpt>
<trkpt lat="46.49981" lon="6.70435"><ele></ele><time>2016-6-24T3:54:8Z</time></trkpt>
<trkpt lat="46.49964" lon="6.70456"><ele></ele><time>2016-6-24T3:54:11Z</time></trkpt>
<trkpt lat="46.4995" lon="6.70475"><ele></ele><time>2016-6-24T3:54:14Z</time></trkpt>
<trkpt lat="46.49946" lon="6.7048"><ele></ele><time>2016-6-24T3:54:17Z</time></trkpt>
<trkpt lat="46.4994" lon="6.70494"><ele></ele><time>2016-6-24T3:54:20Z</time></trkpt>
<trkpt lat="46.49936" lon="6.70508"><ele></ele><time>2016-6-24T3:54:23Z</time></trkpt>
<trkpt lat="46.49925" lon="6.70531"><ele></ele><time>2016-6-24T3:54:26Z</time></trkpt>
<trkpt lat="46.49908" lon="6.70561"><ele></ele><time>2016-6-24T3:54:29Z</time></trkpt>
<trkpt lat="46.49899" lon="6.70577"><ele></ele><time>2016-6-24T3:54:32Z</time></trkpt>
<trkpt lat="46.49894" lon="6.70586"><ele></ele><time>2016-6-24T3:54:35Z</time></trkpt>
<trkpt lat="46.4989" lon="6.70594"><ele></ele><time>2016-6-24T3:54:38Z</time></trkpt>
<trkpt lat="46.49885" lon="6.70607"><ele></ele><time>2016-6-24T3:54:41Z</time></trkpt>
<trkpt lat="46.49875" lon="6.70632"><ele></ele><time>2016-6-24T3:54:44Z</time></trkpt>
<trkpt lat="46.49862" lon="6.70658"><ele></ele><time>2016-6-24T3:54:47Z</time></trkpt>
<trkpt lat="46.49855" lon="6.7067"><ele></ele><time>2016-6-24T3:54:50Z</time></trkpt>
<trkpt lat="46.49851" lon="6.70694"><ele></ele><time>2016-6-24T3:54:53Z</time></trkpt>
<trkpt lat="46.49853" lon="6.70702"><ele></ele><time>2016-6-24T3:54:56Z</time></trkpt>
<trkpt lat="46.49859" lon="6.70723"><ele></ele><time>2016-6-24T3:54:59Z</time></trkpt>
<trkpt lat="46.49861" lon="6.70748"><ele></ele><time>2016-6-24T3:55:2Z</time></trkpt>
<trkpt lat="46.49865" lon="6.70762"><ele></ele><time>2016-6-24T3:55:5Z</time></trkpt>
<trkpt lat="46.49865" lon="6.70767"><ele></ele><time>2016-6-24T3:55:8Z</time></trkpt>
<trkpt lat="46.49866" lon="6.70782"><ele></ele><time>2016-6-24T3:55:11Z</time></trkpt>
<trkpt lat="46.49864" lon="6.70794"><ele></ele><time>2016-6-24T3:55:14Z</time></trkpt>
<trkpt lat="46.49849" lon="6.70799"><ele></ele><time>2016-6-24T3:55:17Z</time></trkpt>
<trkpt lat="46.49828" lon="6.70793"><ele></ele><time>2016-6-24T3:55:20Z</time></trkpt>
<trkpt lat="46.49808" lon="6.7079"><ele></ele><time>2016-6-24T3:55:23Z</time></trkpt>
<trkpt lat="46.49789" lon="6.70788"><ele></ele><time>2016-6-24T3:55:26Z</time></trkpt>
<trkpt lat="46.4978" lon="6.70784"><ele></ele><time>2016-6-24T3:55:29Z</time></trkpt>
<trkpt lat="46.49758" lon="6.70773"><ele></ele><time>2016-6-24T3:55:32Z</time></trkpt>
<trkpt lat="46.49736" lon="6.7076"><ele></ele><time>2016-6-24T3:55:35Z</time></trkpt>
<trkpt lat="46.49724" lon="6.70753"><ele></ele><time>2016-6-24T3:55:38Z</time></trkpt>
<trkpt lat="46.49705" lon="6.70755"><ele></ele><time>2016-6-24T3:55:41Z</time></trkpt>
<trkpt lat="46.49701" lon="6.7076"><ele></ele><time>2016-6-24T3:55:44Z</time></trkpt>
<trkpt lat="46.49689" lon="6.70774"><ele></ele><time>2016-6-24T3:55:47Z</time></trkpt>
<trkpt lat="46.4967" lon="6.70782"><ele></ele><time>2016-6-24T3:55:50Z</time></trkpt>
<trkpt lat="46.4966" lon="6.70783"><ele></ele><time>2016-6-24T3:55:53Z</time></trkpt>
<trkpt lat="46.49655" lon="6.70784"><ele></ele><time>2016-6-24T3:55:56Z</time></trkpt>
<trkpt lat="46.49636" lon="6.70799"><ele></ele><time>2016-6-24T3:55:59Z</time></trkpt>
<trkpt lat="46.49615" lon="6.7082"><ele></ele><time>2016-6-24T3:56:2Z</time></trkpt>
<trkpt lat="46.4961" lon="6.70826"><ele></ele><time>2016-6-24T3:56:5Z</time></trkpt>
<trkpt lat="46.49592" lon="6.70841"><ele></ele><time>2016-6-24T3:56:8Z</time></trkpt>
<trkpt lat="46.49588" lon="6.70843"><ele></ele><time>2016-6-24T3:56:11Z</time></trkpt>
<trkpt lat="46.4957" lon="6.70847"><ele></ele><time>2016-6-24T3:56:14Z</time></trkpt>
<trkpt lat="46.49561" lon="6.70847"><ele></ele><time>2016-6-24T3:56:17Z</time></trkpt>
<trkpt lat="46.49545" lon="6.70844"><ele></ele><time>2016-6-24T3:56:20Z</time></trkpt>
<trkpt lat="46.49532" lon="6.70861"><ele></ele><time>2016-6-24T3:56:23Z</time></trkpt>
<trkpt lat="46.4953" lon="6.70866"><ele></ele><time>2016-6-24T3:56:26Z</time></trkpt>
<trkpt lat="46.4952" lon="6.70889"><ele></ele><time>2016-6-24T3:56:29Z</time></trkpt>
<trkpt lat="46.49508" lon="6.7091"><ele></ele><time>2016-6-24T3:56:32Z</time></trkpt>
<trkpt lat="46.49502" lon="6.70918"><ele></ele><time>2016-6-24T3:56:35Z</time></trkpt>
<trkpt lat="46.49484" lon="6.70906"><ele></ele><time>2016-6-24T3:56:38Z</time></trkpt>
<trkpt lat="46.49465" lon="6.70898"><ele></ele><time>2016-6-24T3:56:41Z</time></trkpt>
<trkpt lat="46.49457" lon="6.70909"><ele></ele><time>2016-6-24T3:56:44Z</time></trkpt>
<trkpt lat="46.49443" lon="6.70931"><ele></ele><time>2016-6-24T3:56:47Z</time></trkpt>
<trkpt lat="46.4944" lon="6.70936"><ele></ele><time>2016-6-24T3:56:50Z</time></trkpt>
<trkpt lat="46.49435" lon="6.70946"><ele></ele><time>2016-6-24T3:56:53Z</time></trkpt>
<trkpt lat="46.49433" lon="6.70954"><ele></ele><time>2016-6-24T3:56:56Z</time></trkpt>
<trkpt lat="46.49434" lon="6.70953"><ele></ele><time>2016-6-24T3:56:59Z</time></trkpt>
<trkpt lat="46.49434" lon="6.70952"><ele></ele><time>2016-6-24T3:57:2Z</time></trkpt>
</trkseg></trk></gpx>